<?xml version="1.0" encoding="UTF-8" standalone="no" ?>
<gpx xmlns="http://www.topografix.com/GPX/1/1" xmlns:xsi="http://www.w3.org/2001/XMLSchema-instance" xsi:schemaLocation="http://www.topografix.com/GPX/1/1 http://www.topografix.com/GPX/1/1/gpx.xsd" version="1.1" creator="VisuGPX - https://www.visugpx.com">
  <metadata>
    <name>Val de Gilly HW 2017</name>
    <desc><![CDATA[Randonnée en boucle au départ de Grimaud.
On rejoint la "Marc Robert" par la piste du Val de Gilly.
Arrivé à la Garde Freinet retour par Suanne et Patassaou et la Roche-Percée.
]]></desc>
  </metadata>
  <trk>
    <name><![CDATA[ACTIVE LOG- 19 AOU 2017 Val de Gilly La Garde Frei...]]></name>
    <trkseg>
      <trkpt lat="43.27611" lon="6.51593">
        <ele>73.003685</ele>
        <time>2017-08-19T07:08:50Z</time>
      </trkpt>
      <trkpt lat="43.27599" lon="6.51556">
        <ele>69.306053</ele>
        <time>2017-08-19T07:12:44Z</time>
      </trkpt>
      <trkpt lat="43.27571" lon="6.51522">
        <ele>68.973747</ele>
        <time>2017-08-19T07:12:54Z</time>
      </trkpt>
      <trkpt lat="43.27539" lon="6.51488">
        <ele>67.96862</ele>
        <time>2017-08-19T07:13:03Z</time>
      </trkpt>
      <trkpt lat="43.27503" lon="6.51464">
        <ele>65.58326</ele>
        <time>2017-08-19T07:13:10Z</time>
      </trkpt>
      <trkpt lat="43.27418" lon="6.51407">
        <ele>64.839188</ele>
        <time>2017-08-19T07:13:27Z</time>
      </trkpt>
      <trkpt lat="43.27315" lon="6.51377">
        <ele>58.599442</ele>
        <time>2017-08-19T07:13:43Z</time>
      </trkpt>
      <trkpt lat="43.2727" lon="6.51361">
        <ele>56.256645</ele>
        <time>2017-08-19T07:13:49Z</time>
      </trkpt>
      <trkpt lat="43.27236" lon="6.51329">
        <ele>56.546711</ele>
        <time>2017-08-19T07:13:54Z</time>
      </trkpt>
      <trkpt lat="43.27205" lon="6.51294">
        <ele>56.906975</ele>
        <time>2017-08-19T07:13:59Z</time>
      </trkpt>
      <trkpt lat="43.27158" lon="6.51271">
        <ele>53.033165</ele>
        <time>2017-08-19T07:14:05Z</time>
      </trkpt>
      <trkpt lat="43.27115" lon="6.51255">
        <ele>49.091827</ele>
        <time>2017-08-19T07:14:10Z</time>
      </trkpt>
      <trkpt lat="43.27078" lon="6.51222">
        <ele>48.24247</ele>
        <time>2017-08-19T07:14:15Z</time>
      </trkpt>
      <trkpt lat="43.27045" lon="6.51188">
        <ele>45.307499</ele>
        <time>2017-08-19T07:14:20Z</time>
      </trkpt>
      <trkpt lat="43.2704" lon="6.51126">
        <ele>45.876987</ele>
        <time>2017-08-19T07:14:26Z</time>
      </trkpt>
      <trkpt lat="43.27054" lon="6.51063">
        <ele>45.083618</ele>
        <time>2017-08-19T07:14:32Z</time>
      </trkpt>
      <trkpt lat="43.27073" lon="6.51013">
        <ele>44.258064</ele>
        <time>2017-08-19T07:14:37Z</time>
      </trkpt>
      <trkpt lat="43.2708" lon="6.50952">
        <ele>41.390156</ele>
        <time>2017-08-19T07:14:43Z</time>
      </trkpt>
      <trkpt lat="43.27085" lon="6.50886">
        <ele>39.564529</ele>
        <time>2017-08-19T07:14:49Z</time>
      </trkpt>
      <trkpt lat="43.27083" lon="6.50833">
        <ele>38.068836</ele>
        <time>2017-08-19T07:14:54Z</time>
      </trkpt>
      <trkpt lat="43.27056" lon="6.50792">
        <ele>33.370327</ele>
        <time>2017-08-19T07:14:59Z</time>
      </trkpt>
      <trkpt lat="43.27066" lon="6.50736">
        <ele>31.589638</ele>
        <time>2017-08-19T07:15:05Z</time>
      </trkpt>
      <trkpt lat="43.27103" lon="6.50712">
        <ele>32.973705</ele>
        <time>2017-08-19T07:15:11Z</time>
      </trkpt>
      <trkpt lat="43.27144" lon="6.50684">
        <ele>33.343307</ele>
        <time>2017-08-19T07:15:18Z</time>
      </trkpt>
      <trkpt lat="43.27174" lon="6.50646">
        <ele>32.338047</ele>
        <time>2017-08-19T07:15:24Z</time>
      </trkpt>
      <trkpt lat="43.27206" lon="6.50607">
        <ele>30.74297</ele>
        <time>2017-08-19T07:15:30Z</time>
      </trkpt>
      <trkpt lat="43.27231" lon="6.50558">
        <ele>28.090063</ele>
        <time>2017-08-19T07:15:36Z</time>
      </trkpt>
      <trkpt lat="43.27252" lon="6.50507">
        <ele>25.9925</ele>
        <time>2017-08-19T07:15:42Z</time>
      </trkpt>
      <trkpt lat="43.27258" lon="6.50454">
        <ele>24.164425</ele>
        <time>2017-08-19T07:15:49Z</time>
      </trkpt>
      <trkpt lat="43.27262" lon="6.50395">
        <ele>22.727968</ele>
        <time>2017-08-19T07:15:59Z</time>
      </trkpt>
      <trkpt lat="43.27262" lon="6.50337">
        <ele>21.857813</ele>
        <time>2017-08-19T07:16:10Z</time>
      </trkpt>
      <trkpt lat="43.27259" lon="6.50283">
        <ele>22.49</ele>
        <time>2017-08-19T07:16:23Z</time>
      </trkpt>
      <trkpt lat="43.27258" lon="6.50193">
        <ele>23.477589</ele>
        <time>2017-08-19T07:17:06Z</time>
      </trkpt>
      <trkpt lat="43.27263" lon="6.50133">
        <ele>23.591375</ele>
        <time>2017-08-19T07:17:17Z</time>
      </trkpt>
      <trkpt lat="43.27269" lon="6.50075">
        <ele>23.234316</ele>
        <time>2017-08-19T07:17:27Z</time>
      </trkpt>
      <trkpt lat="43.2727" lon="6.50013">
        <ele>22.387501</ele>
        <time>2017-08-19T07:17:37Z</time>
      </trkpt>
      <trkpt lat="43.27268" lon="6.49955">
        <ele>21.73</ele>
        <time>2017-08-19T07:17:49Z</time>
      </trkpt>
      <trkpt lat="43.2727" lon="6.49896">
        <ele>22.0109</ele>
        <time>2017-08-19T07:18:05Z</time>
      </trkpt>
      <trkpt lat="43.27286" lon="6.49845">
        <ele>22.959999</ele>
        <time>2017-08-19T07:18:16Z</time>
      </trkpt>
      <trkpt lat="43.273" lon="6.49787">
        <ele>24.186251</ele>
        <time>2017-08-19T07:18:27Z</time>
      </trkpt>
      <trkpt lat="43.27296" lon="6.49728">
        <ele>24.950022</ele>
        <time>2017-08-19T07:18:37Z</time>
      </trkpt>
      <trkpt lat="43.27281" lon="6.49673">
        <ele>24.894913</ele>
        <time>2017-08-19T07:18:46Z</time>
      </trkpt>
      <trkpt lat="43.27293" lon="6.49546">
        <ele>25.5825</ele>
        <time>2017-08-19T07:19:10Z</time>
      </trkpt>
      <trkpt lat="43.27303" lon="6.4942">
        <ele>25.759134</ele>
        <time>2017-08-19T07:19:35Z</time>
      </trkpt>
      <trkpt lat="43.27319" lon="6.49362">
        <ele>26</ele>
        <time>2017-08-19T07:19:49Z</time>
      </trkpt>
      <trkpt lat="43.27338" lon="6.49311">
        <ele>26.365</ele>
        <time>2017-08-19T07:19:57Z</time>
      </trkpt>
      <trkpt lat="43.27349" lon="6.49256">
        <ele>26.5725</ele>
        <time>2017-08-19T07:20:06Z</time>
      </trkpt>
      <trkpt lat="43.27356" lon="6.49201">
        <ele>26.943506</ele>
        <time>2017-08-19T07:20:15Z</time>
      </trkpt>
      <trkpt lat="43.27353" lon="6.49144">
        <ele>27.74375</ele>
        <time>2017-08-19T07:20:24Z</time>
      </trkpt>
      <trkpt lat="43.27373" lon="6.49088">
        <ele>28</ele>
        <time>2017-08-19T07:20:34Z</time>
      </trkpt>
      <trkpt lat="43.27384" lon="6.49029">
        <ele>28.157499</ele>
        <time>2017-08-19T07:20:45Z</time>
      </trkpt>
      <trkpt lat="43.27386" lon="6.48962">
        <ele>28.246525</ele>
        <time>2017-08-19T07:20:55Z</time>
      </trkpt>
      <trkpt lat="43.27378" lon="6.48898">
        <ele>28.624495</ele>
        <time>2017-08-19T07:21:06Z</time>
      </trkpt>
      <trkpt lat="43.27381" lon="6.48835">
        <ele>28.90925</ele>
        <time>2017-08-19T07:21:19Z</time>
      </trkpt>
      <trkpt lat="43.27399" lon="6.48771">
        <ele>30.635374</ele>
        <time>2017-08-19T07:21:32Z</time>
      </trkpt>
      <trkpt lat="43.27416" lon="6.48716">
        <ele>32.101418</ele>
        <time>2017-08-19T07:21:43Z</time>
      </trkpt>
      <trkpt lat="43.27435" lon="6.48659">
        <ele>33.643986</ele>
        <time>2017-08-19T07:21:56Z</time>
      </trkpt>
      <trkpt lat="43.27443" lon="6.48603">
        <ele>34.307499</ele>
        <time>2017-08-19T07:22:08Z</time>
      </trkpt>
      <trkpt lat="43.27451" lon="6.48548">
        <ele>34.840157</ele>
        <time>2017-08-19T07:22:20Z</time>
      </trkpt>
      <trkpt lat="43.27458" lon="6.48494">
        <ele>35.488125</ele>
        <time>2017-08-19T07:22:34Z</time>
      </trkpt>
      <trkpt lat="43.2747" lon="6.48437">
        <ele>36.105</ele>
        <time>2017-08-19T07:22:44Z</time>
      </trkpt>
      <trkpt lat="43.27471" lon="6.48379">
        <ele>36.512589</ele>
        <time>2017-08-19T07:22:55Z</time>
      </trkpt>
      <trkpt lat="43.27471" lon="6.48321">
        <ele>37.959999</ele>
        <time>2017-08-19T07:23:06Z</time>
      </trkpt>
      <trkpt lat="43.27472" lon="6.48266">
        <ele>39.673252</ele>
        <time>2017-08-19T07:23:17Z</time>
      </trkpt>
      <trkpt lat="43.27474" lon="6.48209">
        <ele>40.97625</ele>
        <time>2017-08-19T07:23:29Z</time>
      </trkpt>
      <trkpt lat="43.27517" lon="6.48106">
        <ele>42.775562</ele>
        <time>2017-08-19T07:23:58Z</time>
      </trkpt>
      <trkpt lat="43.27543" lon="6.48061">
        <ele>43.695</ele>
        <time>2017-08-19T07:24:10Z</time>
      </trkpt>
      <trkpt lat="43.27568" lon="6.48014">
        <ele>44.543774</ele>
        <time>2017-08-19T07:24:23Z</time>
      </trkpt>
      <trkpt lat="43.27595" lon="6.47971">
        <ele>45.990185</ele>
        <time>2017-08-19T07:24:37Z</time>
      </trkpt>
      <trkpt lat="43.27638" lon="6.47959">
        <ele>49.571918</ele>
        <time>2017-08-19T07:24:55Z</time>
      </trkpt>
      <trkpt lat="43.27679" lon="6.47949">
        <ele>53.168312</ele>
        <time>2017-08-19T07:25:15Z</time>
      </trkpt>
      <trkpt lat="43.27678" lon="6.47896">
        <ele>54.910439</ele>
        <time>2017-08-19T07:25:34Z</time>
      </trkpt>
      <trkpt lat="43.27673" lon="6.47839">
        <ele>57.82</ele>
        <time>2017-08-19T07:25:53Z</time>
      </trkpt>
      <trkpt lat="43.27667" lon="6.47784">
        <ele>61.10989</ele>
        <time>2017-08-19T07:26:15Z</time>
      </trkpt>
      <trkpt lat="43.27658" lon="6.47723">
        <ele>62.343201</ele>
        <time>2017-08-19T07:26:36Z</time>
      </trkpt>
      <trkpt lat="43.27653" lon="6.47664">
        <ele>63.564999</ele>
        <time>2017-08-19T07:26:53Z</time>
      </trkpt>
      <trkpt lat="43.27642" lon="6.47609">
        <ele>65.901215</ele>
        <time>2017-08-19T07:27:08Z</time>
      </trkpt>
      <trkpt lat="43.27632" lon="6.47553">
        <ele>66.426941</ele>
        <time>2017-08-19T07:27:22Z</time>
      </trkpt>
      <trkpt lat="43.27629" lon="6.47491">
        <ele>67.218903</ele>
        <time>2017-08-19T07:27:38Z</time>
      </trkpt>
      <trkpt lat="43.27646" lon="6.47438">
        <ele>67.614647</ele>
        <time>2017-08-19T07:27:51Z</time>
      </trkpt>
      <trkpt lat="43.27672" lon="6.47392">
        <ele>64.929344</ele>
        <time>2017-08-19T07:28:02Z</time>
      </trkpt>
      <trkpt lat="43.27703" lon="6.47346">
        <ele>63.605442</ele>
        <time>2017-08-19T07:28:10Z</time>
      </trkpt>
      <trkpt lat="43.27724" lon="6.47297">
        <ele>60.161125</ele>
        <time>2017-08-19T07:29:19Z</time>
      </trkpt>
      <trkpt lat="43.27748" lon="6.47247">
        <ele>56.883324</ele>
        <time>2017-08-19T07:29:30Z</time>
      </trkpt>
      <trkpt lat="43.27768" lon="6.47192">
        <ele>56.8325</ele>
        <time>2017-08-19T07:29:42Z</time>
      </trkpt>
      <trkpt lat="43.27795" lon="6.47148">
        <ele>60.465313</ele>
        <time>2017-08-19T07:29:56Z</time>
      </trkpt>
      <trkpt lat="43.27816" lon="6.47101">
        <ele>63.747375</ele>
        <time>2017-08-19T07:30:14Z</time>
      </trkpt>
      <trkpt lat="43.27845" lon="6.47057">
        <ele>67.373665</ele>
        <time>2017-08-19T07:30:31Z</time>
      </trkpt>
      <trkpt lat="43.27871" lon="6.47017">
        <ele>67.160324</ele>
        <time>2017-08-19T07:30:52Z</time>
      </trkpt>
      <trkpt lat="43.2789" lon="6.46968">
        <ele>70.91375</ele>
        <time>2017-08-19T07:31:17Z</time>
      </trkpt>
      <trkpt lat="43.27901" lon="6.46913">
        <ele>77.757942</ele>
        <time>2017-08-19T07:31:51Z</time>
      </trkpt>
      <trkpt lat="43.27897" lon="6.4686">
        <ele>80.599998</ele>
        <time>2017-08-19T07:32:40Z</time>
      </trkpt>
      <trkpt lat="43.2793" lon="6.46769">
        <ele>85.559998</ele>
        <time>2017-08-19T07:33:50Z</time>
      </trkpt>
      <trkpt lat="43.27964" lon="6.46734">
        <ele>89.672699</ele>
        <time>2017-08-19T07:34:12Z</time>
      </trkpt>
      <trkpt lat="43.27976" lon="6.46678">
        <ele>93.226425</ele>
        <time>2017-08-19T07:34:40Z</time>
      </trkpt>
      <trkpt lat="43.27978" lon="6.46615">
        <ele>97.22155</ele>
        <time>2017-08-19T07:35:12Z</time>
      </trkpt>
      <trkpt lat="43.27981" lon="6.46558">
        <ele>100.355576</ele>
        <time>2017-08-19T07:35:41Z</time>
      </trkpt>
      <trkpt lat="43.2801" lon="6.4644">
        <ele>111.970001</ele>
        <time>2017-08-19T07:36:34Z</time>
      </trkpt>
      <trkpt lat="43.27989" lon="6.46393">
        <ele>110.167824</ele>
        <time>2017-08-19T07:36:56Z</time>
      </trkpt>
      <trkpt lat="43.27973" lon="6.46338">
        <ele>111.332825</ele>
        <time>2017-08-19T07:37:19Z</time>
      </trkpt>
      <trkpt lat="43.27961" lon="6.46281">
        <ele>112.983528</ele>
        <time>2017-08-19T07:37:38Z</time>
      </trkpt>
      <trkpt lat="43.27923" lon="6.46171">
        <ele>110.604088</ele>
        <time>2017-08-19T07:38:08Z</time>
      </trkpt>
      <trkpt lat="43.27901" lon="6.46116">
        <ele>106.075829</ele>
        <time>2017-08-19T07:38:16Z</time>
      </trkpt>
      <trkpt lat="43.2789" lon="6.46058">
        <ele>107.402397</ele>
        <time>2017-08-19T07:38:22Z</time>
      </trkpt>
      <trkpt lat="43.27881" lon="6.46004">
        <ele>107.632751</ele>
        <time>2017-08-19T07:38:28Z</time>
      </trkpt>
      <trkpt lat="43.27869" lon="6.45952">
        <ele>103.744972</ele>
        <time>2017-08-19T07:38:38Z</time>
      </trkpt>
      <trkpt lat="43.27856" lon="6.45901">
        <ele>102.334251</ele>
        <time>2017-08-19T07:38:52Z</time>
      </trkpt>
      <trkpt lat="43.27841" lon="6.45939">
        <ele>102.196686</ele>
        <time>2017-08-19T07:39:06Z</time>
      </trkpt>
      <trkpt lat="43.27842" lon="6.45997">
        <ele>100.20829</ele>
        <time>2017-08-19T07:39:23Z</time>
      </trkpt>
      <trkpt lat="43.27838" lon="6.46054">
        <ele>105.113914</ele>
        <time>2017-08-19T07:39:45Z</time>
      </trkpt>
      <trkpt lat="43.2784" lon="6.46109">
        <ele>107.03154</ele>
        <time>2017-08-19T07:40:06Z</time>
      </trkpt>
      <trkpt lat="43.2783" lon="6.46163">
        <ele>111.814827</ele>
        <time>2017-08-19T07:40:27Z</time>
      </trkpt>
      <trkpt lat="43.27832" lon="6.46221">
        <ele>113.111298</ele>
        <time>2017-08-19T07:40:51Z</time>
      </trkpt>
      <trkpt lat="43.27841" lon="6.46276">
        <ele>115.769791</ele>
        <time>2017-08-19T07:41:18Z</time>
      </trkpt>
      <trkpt lat="43.27829" lon="6.46329">
        <ele>121.135849</ele>
        <time>2017-08-19T07:41:45Z</time>
      </trkpt>
      <trkpt lat="43.27812" lon="6.46377">
        <ele>126.042023</ele>
        <time>2017-08-19T07:42:08Z</time>
      </trkpt>
      <trkpt lat="43.27798" lon="6.46428">
        <ele>128.610001</ele>
        <time>2017-08-19T07:42:33Z</time>
      </trkpt>
      <trkpt lat="43.27775" lon="6.46475">
        <ele>133.300812</ele>
        <time>2017-08-19T07:42:58Z</time>
      </trkpt>
      <trkpt lat="43.27744" lon="6.4651">
        <ele>138.530136</ele>
        <time>2017-08-19T07:43:24Z</time>
      </trkpt>
      <trkpt lat="43.2771" lon="6.46541">
        <ele>141.675705</ele>
        <time>2017-08-19T07:43:50Z</time>
      </trkpt>
      <trkpt lat="43.27674" lon="6.46569">
        <ele>144.070969</ele>
        <time>2017-08-19T07:44:17Z</time>
      </trkpt>
      <trkpt lat="43.27593" lon="6.46604">
        <ele>151.048615</ele>
        <time>2017-08-19T07:45:16Z</time>
      </trkpt>
      <trkpt lat="43.27552" lon="6.46607">
        <ele>153.615005</ele>
        <time>2017-08-19T07:45:39Z</time>
      </trkpt>
      <trkpt lat="43.27513" lon="6.46595">
        <ele>163.503265</ele>
        <time>2017-08-19T07:46:05Z</time>
      </trkpt>
      <trkpt lat="43.2748" lon="6.46625">
        <ele>162.990494</ele>
        <time>2017-08-19T07:46:30Z</time>
      </trkpt>
      <trkpt lat="43.27444" lon="6.46654">
        <ele>160.518051</ele>
        <time>2017-08-19T07:46:54Z</time>
      </trkpt>
      <trkpt lat="43.27413" lon="6.46626">
        <ele>165.362793</ele>
        <time>2017-08-19T07:47:18Z</time>
      </trkpt>
      <trkpt lat="43.27399" lon="6.46574">
        <ele>167.261169</ele>
        <time>2017-08-19T07:47:47Z</time>
      </trkpt>
      <trkpt lat="43.27408" lon="6.46522">
        <ele>170.339508</ele>
        <time>2017-08-19T07:48:17Z</time>
      </trkpt>
      <trkpt lat="43.2744" lon="6.46485">
        <ele>177.591736</ele>
        <time>2017-08-19T07:48:48Z</time>
      </trkpt>
      <trkpt lat="43.27477" lon="6.46458">
        <ele>184.558884</ele>
        <time>2017-08-19T07:49:20Z</time>
      </trkpt>
      <trkpt lat="43.27494" lon="6.46413">
        <ele>186.093735</ele>
        <time>2017-08-19T07:49:53Z</time>
      </trkpt>
      <trkpt lat="43.27518" lon="6.46367">
        <ele>188.395248</ele>
        <time>2017-08-19T07:50:23Z</time>
      </trkpt>
      <trkpt lat="43.27556" lon="6.46349">
        <ele>194.92688</ele>
        <time>2017-08-19T07:50:52Z</time>
      </trkpt>
      <trkpt lat="43.27583" lon="6.46312">
        <ele>196.185623</ele>
        <time>2017-08-19T07:51:18Z</time>
      </trkpt>
      <trkpt lat="43.27602" lon="6.46268">
        <ele>198.110504</ele>
        <time>2017-08-19T07:51:47Z</time>
      </trkpt>
      <trkpt lat="43.27613" lon="6.46217">
        <ele>201.773987</ele>
        <time>2017-08-19T07:54:11Z</time>
      </trkpt>
      <trkpt lat="43.2761" lon="6.46163">
        <ele>202.298599</ele>
        <time>2017-08-19T07:54:30Z</time>
      </trkpt>
      <trkpt lat="43.27609" lon="6.46045">
        <ele>199.907196</ele>
        <time>2017-08-19T07:55:00Z</time>
      </trkpt>
      <trkpt lat="43.27601" lon="6.45993">
        <ele>201.432251</ele>
        <time>2017-08-19T07:55:18Z</time>
      </trkpt>
      <trkpt lat="43.27593" lon="6.45938">
        <ele>207.3526</ele>
        <time>2017-08-19T07:55:43Z</time>
      </trkpt>
      <trkpt lat="43.27578" lon="6.45888">
        <ele>212.308792</ele>
        <time>2017-08-19T07:56:11Z</time>
      </trkpt>
      <trkpt lat="43.27572" lon="6.45833">
        <ele>217.298264</ele>
        <time>2017-08-19T07:56:41Z</time>
      </trkpt>
      <trkpt lat="43.27565" lon="6.45779">
        <ele>221.428696</ele>
        <time>2017-08-19T07:57:10Z</time>
      </trkpt>
      <trkpt lat="43.27561" lon="6.45724">
        <ele>225.496872</ele>
        <time>2017-08-19T07:57:38Z</time>
      </trkpt>
      <trkpt lat="43.27569" lon="6.45672">
        <ele>229.797684</ele>
        <time>2017-08-19T07:58:06Z</time>
      </trkpt>
      <trkpt lat="43.27582" lon="6.4562">
        <ele>236.003082</ele>
        <time>2017-08-19T07:58:38Z</time>
      </trkpt>
      <trkpt lat="43.27586" lon="6.45567">
        <ele>241.494995</ele>
        <time>2017-08-19T07:59:10Z</time>
      </trkpt>
      <trkpt lat="43.2758" lon="6.45513">
        <ele>243.895004</ele>
        <time>2017-08-19T07:59:47Z</time>
      </trkpt>
      <trkpt lat="43.27581" lon="6.4546">
        <ele>247.040771</ele>
        <time>2017-08-19T08:00:21Z</time>
      </trkpt>
      <trkpt lat="43.27594" lon="6.45408">
        <ele>253.625</ele>
        <time>2017-08-19T08:00:55Z</time>
      </trkpt>
      <trkpt lat="43.2762" lon="6.45362">
        <ele>257.623535</ele>
        <time>2017-08-19T08:01:28Z</time>
      </trkpt>
      <trkpt lat="43.27633" lon="6.45315">
        <ele>263.67099</ele>
        <time>2017-08-19T08:05:55Z</time>
      </trkpt>
      <trkpt lat="43.27643" lon="6.45259">
        <ele>271.513794</ele>
        <time>2017-08-19T08:06:23Z</time>
      </trkpt>
      <trkpt lat="43.27655" lon="6.45206">
        <ele>277.548706</ele>
        <time>2017-08-19T08:06:56Z</time>
      </trkpt>
      <trkpt lat="43.27675" lon="6.45157">
        <ele>281.337769</ele>
        <time>2017-08-19T08:07:30Z</time>
      </trkpt>
      <trkpt lat="43.277" lon="6.45111">
        <ele>283.692505</ele>
        <time>2017-08-19T08:08:01Z</time>
      </trkpt>
      <trkpt lat="43.27731" lon="6.45069">
        <ele>286.430786</ele>
        <time>2017-08-19T08:08:33Z</time>
      </trkpt>
      <trkpt lat="43.27775" lon="6.44979">
        <ele>296.80249</ele>
        <time>2017-08-19T08:09:42Z</time>
      </trkpt>
      <trkpt lat="43.27808" lon="6.44944">
        <ele>298.861725</ele>
        <time>2017-08-19T08:10:13Z</time>
      </trkpt>
      <trkpt lat="43.27868" lon="6.44871">
        <ele>308.727875</ele>
        <time>2017-08-19T08:11:20Z</time>
      </trkpt>
      <trkpt lat="43.27884" lon="6.44821">
        <ele>313.99176</ele>
        <time>2017-08-19T08:11:50Z</time>
      </trkpt>
      <trkpt lat="43.27902" lon="6.44771">
        <ele>316.717377</ele>
        <time>2017-08-19T08:12:22Z</time>
      </trkpt>
      <trkpt lat="43.27926" lon="6.44723">
        <ele>319.08374</ele>
        <time>2017-08-19T08:12:52Z</time>
      </trkpt>
      <trkpt lat="43.27948" lon="6.44672">
        <ele>324.129395</ele>
        <time>2017-08-19T08:13:21Z</time>
      </trkpt>
      <trkpt lat="43.27977" lon="6.44629">
        <ele>327.670868</ele>
        <time>2017-08-19T08:13:53Z</time>
      </trkpt>
      <trkpt lat="43.28003" lon="6.44587">
        <ele>329.070007</ele>
        <time>2017-08-19T08:14:25Z</time>
      </trkpt>
      <trkpt lat="43.28014" lon="6.44534">
        <ele>334.045197</ele>
        <time>2017-08-19T08:16:14Z</time>
      </trkpt>
      <trkpt lat="43.28016" lon="6.44477">
        <ele>339.381775</ele>
        <time>2017-08-19T08:16:44Z</time>
      </trkpt>
      <trkpt lat="43.28011" lon="6.44418">
        <ele>344.277496</ele>
        <time>2017-08-19T08:17:18Z</time>
      </trkpt>
      <trkpt lat="43.28005" lon="6.44359">
        <ele>348.488281</ele>
        <time>2017-08-19T08:17:52Z</time>
      </trkpt>
      <trkpt lat="43.27999" lon="6.44299">
        <ele>351.129211</ele>
        <time>2017-08-19T08:18:22Z</time>
      </trkpt>
      <trkpt lat="43.27993" lon="6.4424">
        <ele>352.104523</ele>
        <time>2017-08-19T08:18:53Z</time>
      </trkpt>
      <trkpt lat="43.28005" lon="6.44185">
        <ele>350.798798</ele>
        <time>2017-08-19T08:19:24Z</time>
      </trkpt>
      <trkpt lat="43.28006" lon="6.44133">
        <ele>350.203461</ele>
        <time>2017-08-19T08:19:56Z</time>
      </trkpt>
      <trkpt lat="43.28015" lon="6.44078">
        <ele>351.350616</ele>
        <time>2017-08-19T08:21:02Z</time>
      </trkpt>
      <trkpt lat="43.28028" lon="6.44023">
        <ele>350.331238</ele>
        <time>2017-08-19T08:21:09Z</time>
      </trkpt>
      <trkpt lat="43.28042" lon="6.43968">
        <ele>347.61499</ele>
        <time>2017-08-19T08:21:16Z</time>
      </trkpt>
      <trkpt lat="43.28055" lon="6.43912">
        <ele>343.054993</ele>
        <time>2017-08-19T08:21:23Z</time>
      </trkpt>
      <trkpt lat="43.28068" lon="6.43859">
        <ele>339.220642</ele>
        <time>2017-08-19T08:21:30Z</time>
      </trkpt>
      <trkpt lat="43.28074" lon="6.438">
        <ele>334.726929</ele>
        <time>2017-08-19T08:21:40Z</time>
      </trkpt>
      <trkpt lat="43.28081" lon="6.43746">
        <ele>332.571411</ele>
        <time>2017-08-19T08:21:58Z</time>
      </trkpt>
      <trkpt lat="43.28086" lon="6.43687">
        <ele>330.449219</ele>
        <time>2017-08-19T08:22:10Z</time>
      </trkpt>
      <trkpt lat="43.28086" lon="6.4363">
        <ele>326.796417</ele>
        <time>2017-08-19T08:22:20Z</time>
      </trkpt>
      <trkpt lat="43.28082" lon="6.43569">
        <ele>325.872223</ele>
        <time>2017-08-19T08:22:32Z</time>
      </trkpt>
      <trkpt lat="43.28058" lon="6.43525">
        <ele>316.720795</ele>
        <time>2017-08-19T08:22:42Z</time>
      </trkpt>
      <trkpt lat="43.28043" lon="6.43466">
        <ele>314.868225</ele>
        <time>2017-08-19T08:22:51Z</time>
      </trkpt>
      <trkpt lat="43.28041" lon="6.43417">
        <ele>311.157501</ele>
        <time>2017-08-19T08:23:02Z</time>
      </trkpt>
      <trkpt lat="43.28079" lon="6.43396">
        <ele>312.704987</ele>
        <time>2017-08-19T08:23:13Z</time>
      </trkpt>
      <trkpt lat="43.2812" lon="6.43389">
        <ele>306.218933</ele>
        <time>2017-08-19T08:23:24Z</time>
      </trkpt>
      <trkpt lat="43.2815" lon="6.43425">
        <ele>310.203705</ele>
        <time>2017-08-19T08:23:36Z</time>
      </trkpt>
      <trkpt lat="43.28237" lon="6.43396">
        <ele>295.380035</ele>
        <time>2017-08-19T08:23:53Z</time>
      </trkpt>
      <trkpt lat="43.28275" lon="6.43375">
        <ele>292.108215</ele>
        <time>2017-08-19T08:24:00Z</time>
      </trkpt>
      <trkpt lat="43.2832" lon="6.43378">
        <ele>295.97229</ele>
        <time>2017-08-19T08:24:08Z</time>
      </trkpt>
      <trkpt lat="43.28335" lon="6.43336">
        <ele>288.221252</ele>
        <time>2017-08-19T08:24:20Z</time>
      </trkpt>
      <trkpt lat="43.28337" lon="6.4328">
        <ele>274.232147</ele>
        <time>2017-08-19T08:24:29Z</time>
      </trkpt>
      <trkpt lat="43.28364" lon="6.43234">
        <ele>271.286591</ele>
        <time>2017-08-19T08:24:38Z</time>
      </trkpt>
      <trkpt lat="43.28402" lon="6.43211">
        <ele>269.983765</ele>
        <time>2017-08-19T08:24:54Z</time>
      </trkpt>
      <trkpt lat="43.28443" lon="6.43207">
        <ele>268.53125</ele>
        <time>2017-08-19T08:25:24Z</time>
      </trkpt>
      <trkpt lat="43.28478" lon="6.43236">
        <ele>276.864838</ele>
        <time>2017-08-19T08:25:36Z</time>
      </trkpt>
      <trkpt lat="43.28512" lon="6.43211">
        <ele>266.932495</ele>
        <time>2017-08-19T08:25:54Z</time>
      </trkpt>
      <trkpt lat="43.28548" lon="6.43185">
        <ele>263.069641</ele>
        <time>2017-08-19T08:26:06Z</time>
      </trkpt>
      <trkpt lat="43.28585" lon="6.43166">
        <ele>261.781555</ele>
        <time>2017-08-19T08:26:21Z</time>
      </trkpt>
      <trkpt lat="43.28617" lon="6.43137">
        <ele>258.368073</ele>
        <time>2017-08-19T08:26:34Z</time>
      </trkpt>
      <trkpt lat="43.28635" lon="6.43088">
        <ele>249.818771</ele>
        <time>2017-08-19T08:26:44Z</time>
      </trkpt>
      <trkpt lat="43.28696" lon="6.43081">
        <ele>244.5625</ele>
        <time>2017-08-19T08:27:03Z</time>
      </trkpt>
      <trkpt lat="43.28727" lon="6.43119">
        <ele>241.338669</ele>
        <time>2017-08-19T08:27:10Z</time>
      </trkpt>
      <trkpt lat="43.28773" lon="6.43203">
        <ele>238.411255</ele>
        <time>2017-08-19T08:27:28Z</time>
      </trkpt>
      <trkpt lat="43.28789" lon="6.43154">
        <ele>233.852707</ele>
        <time>2017-08-19T08:27:38Z</time>
      </trkpt>
      <trkpt lat="43.28777" lon="6.43101">
        <ele>225.45224</ele>
        <time>2017-08-19T08:27:47Z</time>
      </trkpt>
      <trkpt lat="43.28809" lon="6.43081">
        <ele>221.0354</ele>
        <time>2017-08-19T08:27:58Z</time>
      </trkpt>
      <trkpt lat="43.28807" lon="6.43054">
        <ele>224.350433</ele>
        <time>2017-08-19T08:28:09Z</time>
      </trkpt>
      <trkpt lat="43.28766" lon="6.43043">
        <ele>222.874054</ele>
        <time>2017-08-19T08:28:21Z</time>
      </trkpt>
      <trkpt lat="43.28739" lon="6.43007">
        <ele>220.378052</ele>
        <time>2017-08-19T08:28:34Z</time>
      </trkpt>
      <trkpt lat="43.28745" lon="6.42952">
        <ele>215.839737</ele>
        <time>2017-08-19T08:28:46Z</time>
      </trkpt>
      <trkpt lat="43.28777" lon="6.42914">
        <ele>218.396606</ele>
        <time>2017-08-19T08:29:03Z</time>
      </trkpt>
      <trkpt lat="43.28812" lon="6.42879">
        <ele>222.08699</ele>
        <time>2017-08-19T08:29:24Z</time>
      </trkpt>
      <trkpt lat="43.28851" lon="6.42868">
        <ele>226.790497</ele>
        <time>2017-08-19T08:29:47Z</time>
      </trkpt>
      <trkpt lat="43.28893" lon="6.42867">
        <ele>230.971756</ele>
        <time>2017-08-19T08:30:11Z</time>
      </trkpt>
      <trkpt lat="43.28931" lon="6.42848">
        <ele>229.179993</ele>
        <time>2017-08-19T08:30:35Z</time>
      </trkpt>
      <trkpt lat="43.28967" lon="6.42845">
        <ele>232.311417</ele>
        <time>2017-08-19T08:30:53Z</time>
      </trkpt>
      <trkpt lat="43.29009" lon="6.42837">
        <ele>239.656006</ele>
        <time>2017-08-19T08:31:16Z</time>
      </trkpt>
      <trkpt lat="43.29043" lon="6.42801">
        <ele>240.924759</ele>
        <time>2017-08-19T08:31:44Z</time>
      </trkpt>
      <trkpt lat="43.29084" lon="6.42793">
        <ele>243.400269</ele>
        <time>2017-08-19T08:32:11Z</time>
      </trkpt>
      <trkpt lat="43.29126" lon="6.42802">
        <ele>250.125198</ele>
        <time>2017-08-19T08:32:34Z</time>
      </trkpt>
      <trkpt lat="43.29169" lon="6.42804">
        <ele>256.03186</ele>
        <time>2017-08-19T08:33:24Z</time>
      </trkpt>
      <trkpt lat="43.29141" lon="6.42764">
        <ele>252.990005</ele>
        <time>2017-08-19T08:33:58Z</time>
      </trkpt>
      <trkpt lat="43.29121" lon="6.42715">
        <ele>260.56546</ele>
        <time>2017-08-19T08:34:26Z</time>
      </trkpt>
      <trkpt lat="43.29082" lon="6.42711">
        <ele>260.52536</ele>
        <time>2017-08-19T08:34:55Z</time>
      </trkpt>
      <trkpt lat="43.29043" lon="6.42697">
        <ele>267.553314</ele>
        <time>2017-08-19T08:35:22Z</time>
      </trkpt>
      <trkpt lat="43.29002" lon="6.42682">
        <ele>271.477295</ele>
        <time>2017-08-19T08:35:51Z</time>
      </trkpt>
      <trkpt lat="43.28964" lon="6.4266">
        <ele>274.065125</ele>
        <time>2017-08-19T08:36:13Z</time>
      </trkpt>
      <trkpt lat="43.28934" lon="6.42647">
        <ele>280.180542</ele>
        <time>2017-08-19T08:36:37Z</time>
      </trkpt>
      <trkpt lat="43.28897" lon="6.42685">
        <ele>278.102264</ele>
        <time>2017-08-19T08:37:08Z</time>
      </trkpt>
      <trkpt lat="43.28859" lon="6.42702">
        <ele>276.998505</ele>
        <time>2017-08-19T08:37:36Z</time>
      </trkpt>
      <trkpt lat="43.28825" lon="6.42673">
        <ele>289.55249</ele>
        <time>2017-08-19T08:38:40Z</time>
      </trkpt>
      <trkpt lat="43.28785" lon="6.42668">
        <ele>291.594452</ele>
        <time>2017-08-19T08:39:16Z</time>
      </trkpt>
      <trkpt lat="43.28745" lon="6.4266">
        <ele>292.896301</ele>
        <time>2017-08-19T08:39:51Z</time>
      </trkpt>
      <trkpt lat="43.28709" lon="6.42629">
        <ele>300.139526</ele>
        <time>2017-08-19T08:40:24Z</time>
      </trkpt>
      <trkpt lat="43.28673" lon="6.426">
        <ele>302.339996</ele>
        <time>2017-08-19T08:40:46Z</time>
      </trkpt>
      <trkpt lat="43.28635" lon="6.4258">
        <ele>303.121155</ele>
        <time>2017-08-19T08:41:09Z</time>
      </trkpt>
      <trkpt lat="43.28646" lon="6.42532">
        <ele>300.431946</ele>
        <time>2017-08-19T08:41:30Z</time>
      </trkpt>
      <trkpt lat="43.28674" lon="6.4249">
        <ele>303.426117</ele>
        <time>2017-08-19T08:41:47Z</time>
      </trkpt>
      <trkpt lat="43.2869" lon="6.42441">
        <ele>303.740845</ele>
        <time>2017-08-19T08:42:04Z</time>
      </trkpt>
      <trkpt lat="43.28706" lon="6.4239">
        <ele>309.872955</ele>
        <time>2017-08-19T08:42:22Z</time>
      </trkpt>
      <trkpt lat="43.28709" lon="6.42333">
        <ele>309.267914</ele>
        <time>2017-08-19T08:42:42Z</time>
      </trkpt>
      <trkpt lat="43.28741" lon="6.42293">
        <ele>311.498871</ele>
        <time>2017-08-19T08:43:01Z</time>
      </trkpt>
      <trkpt lat="43.28779" lon="6.42282">
        <ele>315.714874</ele>
        <time>2017-08-19T08:43:27Z</time>
      </trkpt>
      <trkpt lat="43.28812" lon="6.42306">
        <ele>323.176331</ele>
        <time>2017-08-19T08:44:01Z</time>
      </trkpt>
      <trkpt lat="43.2885" lon="6.42324">
        <ele>326.840973</ele>
        <time>2017-08-19T08:44:32Z</time>
      </trkpt>
      <trkpt lat="43.28888" lon="6.42319">
        <ele>331.512299</ele>
        <time>2017-08-19T08:45:03Z</time>
      </trkpt>
      <trkpt lat="43.28904" lon="6.42272">
        <ele>331.778748</ele>
        <time>2017-08-19T08:45:31Z</time>
      </trkpt>
      <trkpt lat="43.28907" lon="6.42219">
        <ele>335.009003</ele>
        <time>2017-08-19T08:45:57Z</time>
      </trkpt>
      <trkpt lat="43.28886" lon="6.42164">
        <ele>338.709869</ele>
        <time>2017-08-19T08:46:28Z</time>
      </trkpt>
      <trkpt lat="43.28865" lon="6.42109">
        <ele>339.356873</ele>
        <time>2017-08-19T08:46:54Z</time>
      </trkpt>
      <trkpt lat="43.28869" lon="6.42053">
        <ele>343.005005</ele>
        <time>2017-08-19T08:47:21Z</time>
      </trkpt>
      <trkpt lat="43.28871" lon="6.41998">
        <ele>344.645203</ele>
        <time>2017-08-19T08:47:43Z</time>
      </trkpt>
      <trkpt lat="43.28885" lon="6.41971">
        <ele>348.920013</ele>
        <time>2017-08-19T08:49:38Z</time>
      </trkpt>
      <trkpt lat="43.28896" lon="6.42026">
        <ele>355.1185</ele>
        <time>2017-08-19T08:50:08Z</time>
      </trkpt>
      <trkpt lat="43.28901" lon="6.42081">
        <ele>359.119995</ele>
        <time>2017-08-19T08:50:43Z</time>
      </trkpt>
      <trkpt lat="43.28926" lon="6.42117">
        <ele>365.254242</ele>
        <time>2017-08-19T08:51:20Z</time>
      </trkpt>
      <trkpt lat="43.28957" lon="6.4215">
        <ele>372.836975</ele>
        <time>2017-08-19T08:52:00Z</time>
      </trkpt>
      <trkpt lat="43.28988" lon="6.42186">
        <ele>380.394379</ele>
        <time>2017-08-19T08:52:43Z</time>
      </trkpt>
      <trkpt lat="43.29014" lon="6.42229">
        <ele>386.051422</ele>
        <time>2017-08-19T08:53:18Z</time>
      </trkpt>
      <trkpt lat="43.2902" lon="6.42285">
        <ele>386.907074</ele>
        <time>2017-08-19T08:53:45Z</time>
      </trkpt>
      <trkpt lat="43.29035" lon="6.42339">
        <ele>391.757446</ele>
        <time>2017-08-19T08:54:13Z</time>
      </trkpt>
      <trkpt lat="43.29049" lon="6.42391">
        <ele>391.361084</ele>
        <time>2017-08-19T08:54:36Z</time>
      </trkpt>
      <trkpt lat="43.29072" lon="6.42432">
        <ele>388.431763</ele>
        <time>2017-08-19T08:54:55Z</time>
      </trkpt>
      <trkpt lat="43.29113" lon="6.42421">
        <ele>397.154327</ele>
        <time>2017-08-19T08:55:14Z</time>
      </trkpt>
      <trkpt lat="43.29153" lon="6.4242">
        <ele>401.246124</ele>
        <time>2017-08-19T08:55:34Z</time>
      </trkpt>
      <trkpt lat="43.29191" lon="6.4243">
        <ele>400.612122</ele>
        <time>2017-08-19T08:55:54Z</time>
      </trkpt>
      <trkpt lat="43.29236" lon="6.42427">
        <ele>405.085052</ele>
        <time>2017-08-19T08:58:59Z</time>
      </trkpt>
      <trkpt lat="43.29279" lon="6.42427">
        <ele>408.591339</ele>
        <time>2017-08-19T08:59:28Z</time>
      </trkpt>
      <trkpt lat="43.29319" lon="6.42429">
        <ele>412.310364</ele>
        <time>2017-08-19T08:59:58Z</time>
      </trkpt>
      <trkpt lat="43.29359" lon="6.42434">
        <ele>414.086945</ele>
        <time>2017-08-19T09:00:25Z</time>
      </trkpt>
      <trkpt lat="43.29397" lon="6.4242">
        <ele>420.215302</ele>
        <time>2017-08-19T09:00:56Z</time>
      </trkpt>
      <trkpt lat="43.29438" lon="6.42422">
        <ele>422.104004</ele>
        <time>2017-08-19T09:01:26Z</time>
      </trkpt>
      <trkpt lat="43.29467" lon="6.42388">
        <ele>428.368164</ele>
        <time>2017-08-19T09:01:58Z</time>
      </trkpt>
      <trkpt lat="43.295" lon="6.42366">
        <ele>433.858246</ele>
        <time>2017-08-19T09:02:30Z</time>
      </trkpt>
      <trkpt lat="43.29541" lon="6.42381">
        <ele>433.188751</ele>
        <time>2017-08-19T09:03:02Z</time>
      </trkpt>
      <trkpt lat="43.29581" lon="6.42394">
        <ele>437.701538</ele>
        <time>2017-08-19T09:03:32Z</time>
      </trkpt>
      <trkpt lat="43.29617" lon="6.42415">
        <ele>443.325012</ele>
        <time>2017-08-19T09:04:00Z</time>
      </trkpt>
      <trkpt lat="43.29646" lon="6.42448">
        <ele>447.910004</ele>
        <time>2017-08-19T09:04:26Z</time>
      </trkpt>
      <trkpt lat="43.29673" lon="6.42484">
        <ele>448.04538</ele>
        <time>2017-08-19T09:04:52Z</time>
      </trkpt>
      <trkpt lat="43.29698" lon="6.42486">
        <ele>453.024261</ele>
        <time>2017-08-19T09:05:23Z</time>
      </trkpt>
      <trkpt lat="43.29671" lon="6.42449">
        <ele>455.645264</ele>
        <time>2017-08-19T09:05:52Z</time>
      </trkpt>
      <trkpt lat="43.29653" lon="6.42397">
        <ele>460.029999</ele>
        <time>2017-08-19T09:12:08Z</time>
      </trkpt>
      <trkpt lat="43.29627" lon="6.42345">
        <ele>465.513916</ele>
        <time>2017-08-19T09:12:46Z</time>
      </trkpt>
      <trkpt lat="43.2959" lon="6.42317">
        <ele>463.930359</ele>
        <time>2017-08-19T09:13:12Z</time>
      </trkpt>
      <trkpt lat="43.29562" lon="6.4228">
        <ele>470.898407</ele>
        <time>2017-08-19T09:13:41Z</time>
      </trkpt>
      <trkpt lat="43.29529" lon="6.42248">
        <ele>472.632294</ele>
        <time>2017-08-19T09:14:10Z</time>
      </trkpt>
      <trkpt lat="43.295" lon="6.42208">
        <ele>477.499725</ele>
        <time>2017-08-19T09:14:38Z</time>
      </trkpt>
      <trkpt lat="43.29475" lon="6.42164">
        <ele>478.537994</ele>
        <time>2017-08-19T09:15:03Z</time>
      </trkpt>
      <trkpt lat="43.29472" lon="6.42117">
        <ele>479.650635</ele>
        <time>2017-08-19T09:15:33Z</time>
      </trkpt>
      <trkpt lat="43.29506" lon="6.42087">
        <ele>484.070007</ele>
        <time>2017-08-19T09:16:04Z</time>
      </trkpt>
      <trkpt lat="43.29534" lon="6.42062">
        <ele>485.755737</ele>
        <time>2017-08-19T09:16:32Z</time>
      </trkpt>
      <trkpt lat="43.29569" lon="6.42095">
        <ele>491.232025</ele>
        <time>2017-08-19T09:17:02Z</time>
      </trkpt>
      <trkpt lat="43.29604" lon="6.42122">
        <ele>496.481995</ele>
        <time>2017-08-19T09:17:30Z</time>
      </trkpt>
      <trkpt lat="43.2964" lon="6.4214">
        <ele>501.922943</ele>
        <time>2017-08-19T09:17:56Z</time>
      </trkpt>
      <trkpt lat="43.29679" lon="6.42133">
        <ele>505.722626</ele>
        <time>2017-08-19T09:18:23Z</time>
      </trkpt>
      <trkpt lat="43.2971" lon="6.42105">
        <ele>511.077942</ele>
        <time>2017-08-19T09:18:50Z</time>
      </trkpt>
      <trkpt lat="43.2972" lon="6.42053">
        <ele>510.526367</ele>
        <time>2017-08-19T09:19:21Z</time>
      </trkpt>
      <trkpt lat="43.29736" lon="6.42002">
        <ele>514.703064</ele>
        <time>2017-08-19T09:19:47Z</time>
      </trkpt>
      <trkpt lat="43.29755" lon="6.41953">
        <ele>520.293579</ele>
        <time>2017-08-19T09:20:21Z</time>
      </trkpt>
      <trkpt lat="43.29768" lon="6.41902">
        <ele>523.586853</ele>
        <time>2017-08-19T09:20:50Z</time>
      </trkpt>
      <trkpt lat="43.2977" lon="6.41847">
        <ele>525.203003</ele>
        <time>2017-08-19T09:21:18Z</time>
      </trkpt>
      <trkpt lat="43.29777" lon="6.41794">
        <ele>525.993347</ele>
        <time>2017-08-19T09:21:49Z</time>
      </trkpt>
      <trkpt lat="43.29802" lon="6.41751">
        <ele>532.135071</ele>
        <time>2017-08-19T09:22:16Z</time>
      </trkpt>
      <trkpt lat="43.29825" lon="6.41707">
        <ele>536.665405</ele>
        <time>2017-08-19T09:22:44Z</time>
      </trkpt>
      <trkpt lat="43.29853" lon="6.41668">
        <ele>541.884888</ele>
        <time>2017-08-19T09:23:16Z</time>
      </trkpt>
      <trkpt lat="43.29874" lon="6.41623">
        <ele>545.105286</ele>
        <time>2017-08-19T09:23:44Z</time>
      </trkpt>
      <trkpt lat="43.29884" lon="6.41568">
        <ele>549.250977</ele>
        <time>2017-08-19T09:24:15Z</time>
      </trkpt>
      <trkpt lat="43.29884" lon="6.41515">
        <ele>551.747986</ele>
        <time>2017-08-19T09:24:46Z</time>
      </trkpt>
      <trkpt lat="43.29881" lon="6.4146">
        <ele>554.094788</ele>
        <time>2017-08-19T09:25:17Z</time>
      </trkpt>
      <trkpt lat="43.29878" lon="6.41404">
        <ele>556.083679</ele>
        <time>2017-08-19T09:25:50Z</time>
      </trkpt>
      <trkpt lat="43.29877" lon="6.41349">
        <ele>558.469788</ele>
        <time>2017-08-19T09:26:21Z</time>
      </trkpt>
      <trkpt lat="43.29886" lon="6.41296">
        <ele>562.393982</ele>
        <time>2017-08-19T09:26:52Z</time>
      </trkpt>
      <trkpt lat="43.29902" lon="6.41244">
        <ele>564.529541</ele>
        <time>2017-08-19T09:27:22Z</time>
      </trkpt>
      <trkpt lat="43.29918" lon="6.41247">
        <ele>566.454346</ele>
        <time>2017-08-19T09:27:45Z</time>
      </trkpt>
      <trkpt lat="43.29922" lon="6.41305">
        <ele>571.90625</ele>
        <time>2017-08-19T09:28:05Z</time>
      </trkpt>
      <trkpt lat="43.29913" lon="6.4136">
        <ele>574.020325</ele>
        <time>2017-08-19T09:28:21Z</time>
      </trkpt>
      <trkpt lat="43.29914" lon="6.41413">
        <ele>573.989502</ele>
        <time>2017-08-19T09:29:50Z</time>
      </trkpt>
      <trkpt lat="43.29924" lon="6.41469">
        <ele>572.64801</ele>
        <time>2017-08-19T09:30:02Z</time>
      </trkpt>
      <trkpt lat="43.29938" lon="6.41524">
        <ele>573.265198</ele>
        <time>2017-08-19T09:30:13Z</time>
      </trkpt>
      <trkpt lat="43.29956" lon="6.41577">
        <ele>574.431641</ele>
        <time>2017-08-19T09:30:23Z</time>
      </trkpt>
      <trkpt lat="43.29985" lon="6.41612">
        <ele>574.031494</ele>
        <time>2017-08-19T09:30:33Z</time>
      </trkpt>
      <trkpt lat="43.3002" lon="6.41634">
        <ele>573.899902</ele>
        <time>2017-08-19T09:30:44Z</time>
      </trkpt>
      <trkpt lat="43.30053" lon="6.4166">
        <ele>574.797668</ele>
        <time>2017-08-19T09:30:57Z</time>
      </trkpt>
      <trkpt lat="43.30072" lon="6.41711">
        <ele>574.442688</ele>
        <time>2017-08-19T09:31:08Z</time>
      </trkpt>
      <trkpt lat="43.30091" lon="6.41766">
        <ele>574.884888</ele>
        <time>2017-08-19T09:31:19Z</time>
      </trkpt>
      <trkpt lat="43.30112" lon="6.41815">
        <ele>575.131531</ele>
        <time>2017-08-19T09:31:29Z</time>
      </trkpt>
      <trkpt lat="43.30145" lon="6.41855">
        <ele>576.731262</ele>
        <time>2017-08-19T09:31:38Z</time>
      </trkpt>
      <trkpt lat="43.30179" lon="6.41889">
        <ele>580.369995</ele>
        <time>2017-08-19T09:31:48Z</time>
      </trkpt>
      <trkpt lat="43.30167" lon="6.41935">
        <ele>576.341431</ele>
        <time>2017-08-19T09:31:58Z</time>
      </trkpt>
      <trkpt lat="43.30166" lon="6.41992">
        <ele>570.739746</ele>
        <time>2017-08-19T09:32:07Z</time>
      </trkpt>
      <trkpt lat="43.30184" lon="6.42042">
        <ele>571.622498</ele>
        <time>2017-08-19T09:32:14Z</time>
      </trkpt>
      <trkpt lat="43.30193" lon="6.42099">
        <ele>567.087524</ele>
        <time>2017-08-19T09:32:20Z</time>
      </trkpt>
      <trkpt lat="43.30212" lon="6.42158">
        <ele>563.910095</ele>
        <time>2017-08-19T09:32:26Z</time>
      </trkpt>
      <trkpt lat="43.30234" lon="6.42211">
        <ele>560.027832</ele>
        <time>2017-08-19T09:32:32Z</time>
      </trkpt>
      <trkpt lat="43.30239" lon="6.42269">
        <ele>563.308838</ele>
        <time>2017-08-19T09:32:41Z</time>
      </trkpt>
      <trkpt lat="43.30241" lon="6.42324">
        <ele>565.461121</ele>
        <time>2017-08-19T09:32:50Z</time>
      </trkpt>
      <trkpt lat="43.30233" lon="6.42376">
        <ele>568.56604</ele>
        <time>2017-08-19T09:33:00Z</time>
      </trkpt>
      <trkpt lat="43.30221" lon="6.42428">
        <ele>569.541382</ele>
        <time>2017-08-19T09:33:19Z</time>
      </trkpt>
      <trkpt lat="43.30223" lon="6.42483">
        <ele>572.174744</ele>
        <time>2017-08-19T09:33:38Z</time>
      </trkpt>
      <trkpt lat="43.30236" lon="6.42535">
        <ele>577.053101</ele>
        <time>2017-08-19T09:33:55Z</time>
      </trkpt>
      <trkpt lat="43.30248" lon="6.42589">
        <ele>574.721313</ele>
        <time>2017-08-19T09:34:08Z</time>
      </trkpt>
      <trkpt lat="43.30243" lon="6.42649">
        <ele>575.650085</ele>
        <time>2017-08-19T09:34:19Z</time>
      </trkpt>
      <trkpt lat="43.30235" lon="6.42705">
        <ele>576.396118</ele>
        <time>2017-08-19T09:34:28Z</time>
      </trkpt>
      <trkpt lat="43.30242" lon="6.42763">
        <ele>574.965759</ele>
        <time>2017-08-19T09:34:38Z</time>
      </trkpt>
      <trkpt lat="43.30258" lon="6.42816">
        <ele>572.358704</ele>
        <time>2017-08-19T09:34:48Z</time>
      </trkpt>
      <trkpt lat="43.30266" lon="6.42875">
        <ele>575.544189</ele>
        <time>2017-08-19T09:34:59Z</time>
      </trkpt>
      <trkpt lat="43.30288" lon="6.42926">
        <ele>573.368042</ele>
        <time>2017-08-19T09:35:08Z</time>
      </trkpt>
      <trkpt lat="43.30314" lon="6.42968">
        <ele>564.284119</ele>
        <time>2017-08-19T09:35:20Z</time>
      </trkpt>
      <trkpt lat="43.30292" lon="6.43015">
        <ele>563.494995</ele>
        <time>2017-08-19T09:36:08Z</time>
      </trkpt>
      <trkpt lat="43.30257" lon="6.43054">
        <ele>564.370605</ele>
        <time>2017-08-19T09:36:17Z</time>
      </trkpt>
      <trkpt lat="43.30225" lon="6.431">
        <ele>561.277588</ele>
        <time>2017-08-19T09:36:24Z</time>
      </trkpt>
      <trkpt lat="43.30205" lon="6.4315">
        <ele>555.332153</ele>
        <time>2017-08-19T09:36:30Z</time>
      </trkpt>
      <trkpt lat="43.30169" lon="6.43191">
        <ele>556.276489</ele>
        <time>2017-08-19T09:36:36Z</time>
      </trkpt>
      <trkpt lat="43.30141" lon="6.43238">
        <ele>552.574524</ele>
        <time>2017-08-19T09:36:42Z</time>
      </trkpt>
      <trkpt lat="43.30131" lon="6.43299">
        <ele>546.663513</ele>
        <time>2017-08-19T09:36:48Z</time>
      </trkpt>
      <trkpt lat="43.30112" lon="6.43358">
        <ele>543.335205</ele>
        <time>2017-08-19T09:36:54Z</time>
      </trkpt>
      <trkpt lat="43.301" lon="6.43409">
        <ele>538.529846</ele>
        <time>2017-08-19T09:36:59Z</time>
      </trkpt>
      <trkpt lat="43.30081" lon="6.43455">
        <ele>539.86969</ele>
        <time>2017-08-19T09:37:04Z</time>
      </trkpt>
      <trkpt lat="43.3007" lon="6.43509">
        <ele>540.832886</ele>
        <time>2017-08-19T09:37:09Z</time>
      </trkpt>
      <trkpt lat="43.3006" lon="6.43566">
        <ele>542.437134</ele>
        <time>2017-08-19T09:37:14Z</time>
      </trkpt>
      <trkpt lat="43.30051" lon="6.43622">
        <ele>542.085999</ele>
        <time>2017-08-19T09:37:19Z</time>
      </trkpt>
      <trkpt lat="43.30041" lon="6.43674">
        <ele>542.673889</ele>
        <time>2017-08-19T09:37:27Z</time>
      </trkpt>
      <trkpt lat="43.30031" lon="6.43725">
        <ele>545.219788</ele>
        <time>2017-08-19T09:37:48Z</time>
      </trkpt>
      <trkpt lat="43.30024" lon="6.4378">
        <ele>550.635864</ele>
        <time>2017-08-19T09:38:15Z</time>
      </trkpt>
      <trkpt lat="43.30009" lon="6.43833">
        <ele>556.411865</ele>
        <time>2017-08-19T09:38:44Z</time>
      </trkpt>
      <trkpt lat="43.29999" lon="6.43892">
        <ele>561.577515</ele>
        <time>2017-08-19T09:39:16Z</time>
      </trkpt>
      <trkpt lat="43.29983" lon="6.43945">
        <ele>566.336792</ele>
        <time>2017-08-19T09:39:40Z</time>
      </trkpt>
      <trkpt lat="43.29964" lon="6.43996">
        <ele>569.767334</ele>
        <time>2017-08-19T09:40:06Z</time>
      </trkpt>
      <trkpt lat="43.29945" lon="6.44048">
        <ele>573.343994</ele>
        <time>2017-08-19T09:40:29Z</time>
      </trkpt>
      <trkpt lat="43.29924" lon="6.44097">
        <ele>572.787537</ele>
        <time>2017-08-19T09:40:52Z</time>
      </trkpt>
      <trkpt lat="43.29914" lon="6.44152">
        <ele>575.582153</ele>
        <time>2017-08-19T09:41:14Z</time>
      </trkpt>
      <trkpt lat="43.29927" lon="6.44205">
        <ele>576.092163</ele>
        <time>2017-08-19T09:41:30Z</time>
      </trkpt>
      <trkpt lat="43.29932" lon="6.4426">
        <ele>575.697571</ele>
        <time>2017-08-19T09:41:42Z</time>
      </trkpt>
      <trkpt lat="43.2993" lon="6.44319">
        <ele>573.849731</ele>
        <time>2017-08-19T09:41:56Z</time>
      </trkpt>
      <trkpt lat="43.29932" lon="6.44379">
        <ele>574.009766</ele>
        <time>2017-08-19T09:45:02Z</time>
      </trkpt>
      <trkpt lat="43.29927" lon="6.44438">
        <ele>570.565369</ele>
        <time>2017-08-19T09:45:12Z</time>
      </trkpt>
      <trkpt lat="43.29912" lon="6.44494">
        <ele>565.035339</ele>
        <time>2017-08-19T09:45:22Z</time>
      </trkpt>
      <trkpt lat="43.29909" lon="6.44551">
        <ele>565.786499</ele>
        <time>2017-08-19T09:45:31Z</time>
      </trkpt>
      <trkpt lat="43.29909" lon="6.4461">
        <ele>567.44635</ele>
        <time>2017-08-19T09:45:41Z</time>
      </trkpt>
      <trkpt lat="43.29919" lon="6.44662">
        <ele>569.847534</ele>
        <time>2017-08-19T09:45:51Z</time>
      </trkpt>
      <trkpt lat="43.29944" lon="6.44712">
        <ele>571.910278</ele>
        <time>2017-08-19T09:46:02Z</time>
      </trkpt>
      <trkpt lat="43.29976" lon="6.4475">
        <ele>571.103088</ele>
        <time>2017-08-19T09:46:12Z</time>
      </trkpt>
      <trkpt lat="43.29979" lon="6.44806">
        <ele>569.226013</ele>
        <time>2017-08-19T09:46:21Z</time>
      </trkpt>
      <trkpt lat="43.29969" lon="6.44869">
        <ele>567.38501</ele>
        <time>2017-08-19T09:46:28Z</time>
      </trkpt>
      <trkpt lat="43.29948" lon="6.44928">
        <ele>560.504395</ele>
        <time>2017-08-19T09:46:34Z</time>
      </trkpt>
      <trkpt lat="43.29931" lon="6.44978">
        <ele>559.890015</ele>
        <time>2017-08-19T09:46:39Z</time>
      </trkpt>
      <trkpt lat="43.29937" lon="6.45031">
        <ele>561.261963</ele>
        <time>2017-08-19T09:46:46Z</time>
      </trkpt>
      <trkpt lat="43.29963" lon="6.45073">
        <ele>562.459229</ele>
        <time>2017-08-19T09:46:53Z</time>
      </trkpt>
      <trkpt lat="43.30002" lon="6.45093">
        <ele>556.388611</ele>
        <time>2017-08-19T09:47:00Z</time>
      </trkpt>
      <trkpt lat="43.30035" lon="6.45127">
        <ele>560.496094</ele>
        <time>2017-08-19T09:47:07Z</time>
      </trkpt>
      <trkpt lat="43.30076" lon="6.45132">
        <ele>551.706848</ele>
        <time>2017-08-19T09:47:14Z</time>
      </trkpt>
      <trkpt lat="43.30109" lon="6.4517">
        <ele>554.814575</ele>
        <time>2017-08-19T09:47:21Z</time>
      </trkpt>
      <trkpt lat="43.3015" lon="6.45186">
        <ele>548.061218</ele>
        <time>2017-08-19T09:47:28Z</time>
      </trkpt>
      <trkpt lat="43.30176" lon="6.45237">
        <ele>549.155579</ele>
        <time>2017-08-19T09:47:35Z</time>
      </trkpt>
      <trkpt lat="43.3021" lon="6.45272">
        <ele>547.197205</ele>
        <time>2017-08-19T09:47:41Z</time>
      </trkpt>
      <trkpt lat="43.30251" lon="6.4529">
        <ele>542.041748</ele>
        <time>2017-08-19T09:47:47Z</time>
      </trkpt>
      <trkpt lat="43.30278" lon="6.45327">
        <ele>537.40979</ele>
        <time>2017-08-19T09:47:54Z</time>
      </trkpt>
      <trkpt lat="43.30268" lon="6.45388">
        <ele>538.09259</ele>
        <time>2017-08-19T09:48:02Z</time>
      </trkpt>
      <trkpt lat="43.30288" lon="6.45432">
        <ele>538.633179</ele>
        <time>2017-08-19T09:48:10Z</time>
      </trkpt>
      <trkpt lat="43.30322" lon="6.4544">
        <ele>538.055786</ele>
        <time>2017-08-19T09:48:17Z</time>
      </trkpt>
      <trkpt lat="43.3036" lon="6.45405">
        <ele>534.299683</ele>
        <time>2017-08-19T09:48:24Z</time>
      </trkpt>
      <trkpt lat="43.304" lon="6.45386">
        <ele>534.792786</ele>
        <time>2017-08-19T09:48:31Z</time>
      </trkpt>
      <trkpt lat="43.30425" lon="6.45346">
        <ele>530.163574</ele>
        <time>2017-08-19T09:48:37Z</time>
      </trkpt>
      <trkpt lat="43.30451" lon="6.45302">
        <ele>526.421265</ele>
        <time>2017-08-19T09:48:43Z</time>
      </trkpt>
      <trkpt lat="43.30482" lon="6.45262">
        <ele>526.457397</ele>
        <time>2017-08-19T09:48:49Z</time>
      </trkpt>
      <trkpt lat="43.30508" lon="6.45218">
        <ele>525.805664</ele>
        <time>2017-08-19T09:48:55Z</time>
      </trkpt>
      <trkpt lat="43.30521" lon="6.45159">
        <ele>522.381592</ele>
        <time>2017-08-19T09:49:02Z</time>
      </trkpt>
      <trkpt lat="43.30549" lon="6.4512">
        <ele>521.755249</ele>
        <time>2017-08-19T09:49:08Z</time>
      </trkpt>
      <trkpt lat="43.30584" lon="6.45086">
        <ele>519.175049</ele>
        <time>2017-08-19T09:49:14Z</time>
      </trkpt>
      <trkpt lat="43.30612" lon="6.45041">
        <ele>513.210388</ele>
        <time>2017-08-19T09:49:20Z</time>
      </trkpt>
      <trkpt lat="43.30652" lon="6.45025">
        <ele>511.770325</ele>
        <time>2017-08-19T09:49:27Z</time>
      </trkpt>
      <trkpt lat="43.30695" lon="6.45029">
        <ele>513.352173</ele>
        <time>2017-08-19T09:49:33Z</time>
      </trkpt>
      <trkpt lat="43.30732" lon="6.45001">
        <ele>508.426331</ele>
        <time>2017-08-19T09:49:39Z</time>
      </trkpt>
      <trkpt lat="43.30768" lon="6.44982">
        <ele>505.295349</ele>
        <time>2017-08-19T09:49:44Z</time>
      </trkpt>
      <trkpt lat="43.30811" lon="6.44974">
        <ele>502.606323</ele>
        <time>2017-08-19T09:49:50Z</time>
      </trkpt>
      <trkpt lat="43.30835" lon="6.45015">
        <ele>502.84256</ele>
        <time>2017-08-19T09:50:03Z</time>
      </trkpt>
      <trkpt lat="43.30817" lon="6.45066">
        <ele>505.880798</ele>
        <time>2017-08-19T09:50:17Z</time>
      </trkpt>
      <trkpt lat="43.30789" lon="6.45112">
        <ele>510.792511</ele>
        <time>2017-08-19T09:50:30Z</time>
      </trkpt>
      <trkpt lat="43.30779" lon="6.45167">
        <ele>510.417786</ele>
        <time>2017-08-19T09:50:41Z</time>
      </trkpt>
      <trkpt lat="43.3077" lon="6.45224">
        <ele>508.807037</ele>
        <time>2017-08-19T09:50:52Z</time>
      </trkpt>
      <trkpt lat="43.30749" lon="6.45271">
        <ele>507.200012</ele>
        <time>2017-08-19T09:51:01Z</time>
      </trkpt>
      <trkpt lat="43.30716" lon="6.45304">
        <ele>508.880005</ele>
        <time>2017-08-19T09:51:10Z</time>
      </trkpt>
      <trkpt lat="43.30697" lon="6.45356">
        <ele>508.160339</ele>
        <time>2017-08-19T09:51:20Z</time>
      </trkpt>
      <trkpt lat="43.30677" lon="6.45407">
        <ele>508.516693</ele>
        <time>2017-08-19T09:51:29Z</time>
      </trkpt>
      <trkpt lat="43.30672" lon="6.45463">
        <ele>506.196991</ele>
        <time>2017-08-19T09:51:37Z</time>
      </trkpt>
      <trkpt lat="43.30653" lon="6.45518">
        <ele>508.005005</ele>
        <time>2017-08-19T09:51:44Z</time>
      </trkpt>
      <trkpt lat="43.30629" lon="6.45564">
        <ele>511.244995</ele>
        <time>2017-08-19T09:51:54Z</time>
      </trkpt>
      <trkpt lat="43.30607" lon="6.45618">
        <ele>513.179138</ele>
        <time>2017-08-19T09:52:13Z</time>
      </trkpt>
      <trkpt lat="43.30594" lon="6.45673">
        <ele>513.367004</ele>
        <time>2017-08-19T09:52:29Z</time>
      </trkpt>
      <trkpt lat="43.30581" lon="6.45732">
        <ele>511.575012</ele>
        <time>2017-08-19T09:52:44Z</time>
      </trkpt>
      <trkpt lat="43.30567" lon="6.45791">
        <ele>503.429077</ele>
        <time>2017-08-19T09:52:51Z</time>
      </trkpt>
      <trkpt lat="43.30532" lon="6.45819">
        <ele>509.075867</ele>
        <time>2017-08-19T09:52:58Z</time>
      </trkpt>
      <trkpt lat="43.30518" lon="6.45865">
        <ele>508.644714</ele>
        <time>2017-08-19T09:53:07Z</time>
      </trkpt>
      <trkpt lat="43.30534" lon="6.45915">
        <ele>504.126801</ele>
        <time>2017-08-19T09:53:16Z</time>
      </trkpt>
      <trkpt lat="43.30528" lon="6.45972">
        <ele>504.315643</ele>
        <time>2017-08-19T09:53:26Z</time>
      </trkpt>
      <trkpt lat="43.30522" lon="6.46027">
        <ele>505.444061</ele>
        <time>2017-08-19T09:53:35Z</time>
      </trkpt>
      <trkpt lat="43.3056" lon="6.46041">
        <ele>502.540649</ele>
        <time>2017-08-19T09:53:44Z</time>
      </trkpt>
      <trkpt lat="43.30597" lon="6.46051">
        <ele>503.33902</ele>
        <time>2017-08-19T09:53:53Z</time>
      </trkpt>
      <trkpt lat="43.30632" lon="6.4609">
        <ele>503.364166</ele>
        <time>2017-08-19T09:54:01Z</time>
      </trkpt>
      <trkpt lat="43.30662" lon="6.46125">
        <ele>505.942566</ele>
        <time>2017-08-19T09:54:10Z</time>
      </trkpt>
      <trkpt lat="43.30702" lon="6.46129">
        <ele>500.079987</ele>
        <time>2017-08-19T09:54:20Z</time>
      </trkpt>
      <trkpt lat="43.30721" lon="6.46184">
        <ele>504.165497</ele>
        <time>2017-08-19T09:54:30Z</time>
      </trkpt>
      <trkpt lat="43.30742" lon="6.46238">
        <ele>503.527161</ele>
        <time>2017-08-19T09:54:40Z</time>
      </trkpt>
      <trkpt lat="43.30773" lon="6.46286">
        <ele>498.910156</ele>
        <time>2017-08-19T09:54:48Z</time>
      </trkpt>
      <trkpt lat="43.30803" lon="6.46323">
        <ele>493.815887</ele>
        <time>2017-08-19T09:54:53Z</time>
      </trkpt>
      <trkpt lat="43.30836" lon="6.46358">
        <ele>491.973206</ele>
        <time>2017-08-19T09:54:58Z</time>
      </trkpt>
      <trkpt lat="43.3088" lon="6.46365">
        <ele>487.635986</ele>
        <time>2017-08-19T09:55:06Z</time>
      </trkpt>
      <trkpt lat="43.30918" lon="6.46397">
        <ele>488.55899</ele>
        <time>2017-08-19T09:55:16Z</time>
      </trkpt>
      <trkpt lat="43.30953" lon="6.46431">
        <ele>490.058075</ele>
        <time>2017-08-19T09:55:24Z</time>
      </trkpt>
      <trkpt lat="43.30993" lon="6.46443">
        <ele>486.12912</ele>
        <time>2017-08-19T09:55:32Z</time>
      </trkpt>
      <trkpt lat="43.31032" lon="6.4646">
        <ele>483.543945</ele>
        <time>2017-08-19T09:55:40Z</time>
      </trkpt>
      <trkpt lat="43.31067" lon="6.46489">
        <ele>485.213196</ele>
        <time>2017-08-19T09:55:46Z</time>
      </trkpt>
      <trkpt lat="43.31106" lon="6.46493">
        <ele>484.532501</ele>
        <time>2017-08-19T09:55:55Z</time>
      </trkpt>
      <trkpt lat="43.31145" lon="6.46476">
        <ele>483.060913</ele>
        <time>2017-08-19T09:56:06Z</time>
      </trkpt>
      <trkpt lat="43.31175" lon="6.46438">
        <ele>479.69751</ele>
        <time>2017-08-19T09:56:14Z</time>
      </trkpt>
      <trkpt lat="43.31206" lon="6.46391">
        <ele>478.412506</ele>
        <time>2017-08-19T09:56:22Z</time>
      </trkpt>
      <trkpt lat="43.31216" lon="6.46334">
        <ele>468.37207</ele>
        <time>2017-08-19T09:56:29Z</time>
      </trkpt>
      <trkpt lat="43.31253" lon="6.46314">
        <ele>463.889099</ele>
        <time>2017-08-19T09:56:37Z</time>
      </trkpt>
      <trkpt lat="43.31291" lon="6.46343">
        <ele>462.376373</ele>
        <time>2017-08-19T09:56:42Z</time>
      </trkpt>
      <trkpt lat="43.31329" lon="6.46373">
        <ele>462.406921</ele>
        <time>2017-08-19T09:56:47Z</time>
      </trkpt>
      <trkpt lat="43.31371" lon="6.46382">
        <ele>460.727509</ele>
        <time>2017-08-19T09:56:53Z</time>
      </trkpt>
      <trkpt lat="43.3141" lon="6.46359">
        <ele>454.368042</ele>
        <time>2017-08-19T09:56:59Z</time>
      </trkpt>
      <trkpt lat="43.31448" lon="6.46344">
        <ele>452.575012</ele>
        <time>2017-08-19T09:57:04Z</time>
      </trkpt>
      <trkpt lat="43.31489" lon="6.46329">
        <ele>449.958618</ele>
        <time>2017-08-19T09:57:09Z</time>
      </trkpt>
      <trkpt lat="43.31528" lon="6.4632">
        <ele>445.822357</ele>
        <time>2017-08-19T09:57:14Z</time>
      </trkpt>
      <trkpt lat="43.31561" lon="6.46345">
        <ele>442.391235</ele>
        <time>2017-08-19T09:57:21Z</time>
      </trkpt>
      <trkpt lat="43.31584" lon="6.46396">
        <ele>442.79361</ele>
        <time>2017-08-19T09:57:28Z</time>
      </trkpt>
      <trkpt lat="43.31611" lon="6.4645">
        <ele>438.440216</ele>
        <time>2017-08-19T09:57:34Z</time>
      </trkpt>
      <trkpt lat="43.31637" lon="6.46497">
        <ele>433.52536</ele>
        <time>2017-08-19T09:57:44Z</time>
      </trkpt>
      <trkpt lat="43.31616" lon="6.46539">
        <ele>435.467194</ele>
        <time>2017-08-19T09:58:32Z</time>
      </trkpt>
      <trkpt lat="43.31578" lon="6.46561">
        <ele>437.026611</ele>
        <time>2017-08-19T09:58:45Z</time>
      </trkpt>
      <trkpt lat="43.31555" lon="6.46613">
        <ele>430.744293</ele>
        <time>2017-08-19T09:58:54Z</time>
      </trkpt>
      <trkpt lat="43.31523" lon="6.46652">
        <ele>429.055084</ele>
        <time>2017-08-19T09:59:01Z</time>
      </trkpt>
      <trkpt lat="43.31481" lon="6.46673">
        <ele>429.07373</ele>
        <time>2017-08-19T09:59:07Z</time>
      </trkpt>
      <trkpt lat="43.3144" lon="6.46697">
        <ele>426.048828</ele>
        <time>2017-08-19T09:59:12Z</time>
      </trkpt>
      <trkpt lat="43.31403" lon="6.46724">
        <ele>423.644989</ele>
        <time>2017-08-19T09:59:17Z</time>
      </trkpt>
      <trkpt lat="43.31365" lon="6.46765">
        <ele>419.613068</ele>
        <time>2017-08-19T09:59:22Z</time>
      </trkpt>
      <trkpt lat="43.31328" lon="6.46796">
        <ele>417.052643</ele>
        <time>2017-08-19T09:59:27Z</time>
      </trkpt>
      <trkpt lat="43.31286" lon="6.46819">
        <ele>413.415009</ele>
        <time>2017-08-19T09:59:32Z</time>
      </trkpt>
      <trkpt lat="43.31242" lon="6.46827">
        <ele>411.521606</ele>
        <time>2017-08-19T09:59:37Z</time>
      </trkpt>
      <trkpt lat="43.312" lon="6.46822">
        <ele>412.30249</ele>
        <time>2017-08-19T09:59:43Z</time>
      </trkpt>
      <trkpt lat="43.31221" lon="6.46856">
        <ele>402.73999</ele>
        <time>2017-08-19T09:59:51Z</time>
      </trkpt>
      <trkpt lat="43.3126" lon="6.4688">
        <ele>396.047394</ele>
        <time>2017-08-19T09:59:56Z</time>
      </trkpt>
      <trkpt lat="43.31305" lon="6.46886">
        <ele>392.625977</ele>
        <time>2017-08-19T10:00:02Z</time>
      </trkpt>
      <trkpt lat="43.31355" lon="6.4688">
        <ele>390.029114</ele>
        <time>2017-08-19T10:00:08Z</time>
      </trkpt>
      <trkpt lat="43.314" lon="6.46868">
        <ele>387.918243</ele>
        <time>2017-08-19T10:00:14Z</time>
      </trkpt>
      <trkpt lat="43.31445" lon="6.46881">
        <ele>379.950623</ele>
        <time>2017-08-19T10:00:19Z</time>
      </trkpt>
      <trkpt lat="43.31486" lon="6.4689">
        <ele>374.016846</ele>
        <time>2017-08-19T10:00:24Z</time>
      </trkpt>
      <trkpt lat="43.31494" lon="6.4694">
        <ele>366.797791</ele>
        <time>2017-08-19T10:00:34Z</time>
      </trkpt>
      <trkpt lat="43.31479" lon="6.46996">
        <ele>360.30249</ele>
        <time>2017-08-19T10:00:40Z</time>
      </trkpt>
      <trkpt lat="43.31471" lon="6.47053">
        <ele>354.058594</ele>
        <time>2017-08-19T10:00:48Z</time>
      </trkpt>
      <trkpt lat="43.31451" lon="6.471">
        <ele>351.17926</ele>
        <time>2017-08-19T10:01:32Z</time>
      </trkpt>
      <trkpt lat="43.31441" lon="6.47143">
        <ele>348.609619</ele>
        <time>2017-08-19T10:02:24Z</time>
      </trkpt>
      <trkpt lat="43.31448" lon="6.472">
        <ele>348.266785</ele>
        <time>2017-08-19T10:02:34Z</time>
      </trkpt>
      <trkpt lat="43.3148" lon="6.47237">
        <ele>349.003326</ele>
        <time>2017-08-19T10:02:44Z</time>
      </trkpt>
      <trkpt lat="43.31524" lon="6.47248">
        <ele>346.334808</ele>
        <time>2017-08-19T10:02:55Z</time>
      </trkpt>
      <trkpt lat="43.31561" lon="6.47267">
        <ele>344.371429</ele>
        <time>2017-08-19T10:03:04Z</time>
      </trkpt>
      <trkpt lat="43.31584" lon="6.47311">
        <ele>346.600647</ele>
        <time>2017-08-19T10:03:12Z</time>
      </trkpt>
      <trkpt lat="43.31617" lon="6.47355">
        <ele>346.020905</ele>
        <time>2017-08-19T10:03:20Z</time>
      </trkpt>
      <trkpt lat="43.31643" lon="6.47396">
        <ele>346.472504</ele>
        <time>2017-08-19T10:03:27Z</time>
      </trkpt>
      <trkpt lat="43.31678" lon="6.47422">
        <ele>344.727325</ele>
        <time>2017-08-19T10:03:36Z</time>
      </trkpt>
      <trkpt lat="43.31694" lon="6.47478">
        <ele>349.661957</ele>
        <time>2017-08-19T10:03:45Z</time>
      </trkpt>
      <trkpt lat="43.31733" lon="6.47498">
        <ele>352.134369</ele>
        <time>2017-08-19T10:03:53Z</time>
      </trkpt>
      <trkpt lat="43.31771" lon="6.47481">
        <ele>349.901703</ele>
        <time>2017-08-19T10:04:03Z</time>
      </trkpt>
      <trkpt lat="43.3181" lon="6.47461">
        <ele>348.47876</ele>
        <time>2017-08-19T10:04:12Z</time>
      </trkpt>
      <trkpt lat="43.31849" lon="6.47468">
        <ele>349.833557</ele>
        <time>2017-08-19T10:04:20Z</time>
      </trkpt>
      <trkpt lat="43.3188" lon="6.47505">
        <ele>352.087738</ele>
        <time>2017-08-19T10:04:30Z</time>
      </trkpt>
      <trkpt lat="43.31908" lon="6.47552">
        <ele>352.814941</ele>
        <time>2017-08-19T10:04:39Z</time>
      </trkpt>
      <trkpt lat="43.31935" lon="6.47599">
        <ele>352.199799</ele>
        <time>2017-08-19T10:04:48Z</time>
      </trkpt>
      <trkpt lat="43.31937" lon="6.47597">
        <ele>351.906891</ele>
        <time>2017-08-19T10:05:10Z</time>
      </trkpt>
      <trkpt lat="43.31929" lon="6.4761">
        <ele>354.248535</ele>
        <time>2017-08-19T10:05:30Z</time>
      </trkpt>
      <trkpt lat="43.31967" lon="6.47629">
        <ele>352.67572</ele>
        <time>2017-08-19T10:05:43Z</time>
      </trkpt>
      <trkpt lat="43.32015" lon="6.47656">
        <ele>355.640015</ele>
        <time>2017-08-19T10:06:08Z</time>
      </trkpt>
      <trkpt lat="43.32065" lon="6.4769">
        <ele>357.173096</ele>
        <time>2017-08-19T10:06:32Z</time>
      </trkpt>
      <trkpt lat="43.32092" lon="6.47736">
        <ele>354.395996</ele>
        <time>2017-08-19T10:06:44Z</time>
      </trkpt>
      <trkpt lat="43.32113" lon="6.47796">
        <ele>350.022003</ele>
        <time>2017-08-19T10:06:51Z</time>
      </trkpt>
      <trkpt lat="43.3213" lon="6.4785">
        <ele>345.099457</ele>
        <time>2017-08-19T10:06:59Z</time>
      </trkpt>
      <trkpt lat="43.32151" lon="6.47903">
        <ele>342.828644</ele>
        <time>2017-08-19T10:07:09Z</time>
      </trkpt>
      <trkpt lat="43.32178" lon="6.4795">
        <ele>342.242371</ele>
        <time>2017-08-19T10:07:21Z</time>
      </trkpt>
      <trkpt lat="43.32202" lon="6.48001">
        <ele>342.450012</ele>
        <time>2017-08-19T10:07:35Z</time>
      </trkpt>
      <trkpt lat="43.32225" lon="6.48053">
        <ele>340.937286</ele>
        <time>2017-08-19T10:07:46Z</time>
      </trkpt>
      <trkpt lat="43.32259" lon="6.48079">
        <ele>341.247131</ele>
        <time>2017-08-19T10:07:57Z</time>
      </trkpt>
      <trkpt lat="43.323" lon="6.48076">
        <ele>347.690552</ele>
        <time>2017-08-19T10:08:12Z</time>
      </trkpt>
      <trkpt lat="43.32338" lon="6.48081">
        <ele>353.031372</ele>
        <time>2017-08-19T10:08:23Z</time>
      </trkpt>
      <trkpt lat="43.32355" lon="6.48131">
        <ele>352.646698</ele>
        <time>2017-08-19T10:08:35Z</time>
      </trkpt>
      <trkpt lat="43.32359" lon="6.48191">
        <ele>352.600128</ele>
        <time>2017-08-19T10:08:47Z</time>
      </trkpt>
      <trkpt lat="43.32372" lon="6.48253">
        <ele>359.099701</ele>
        <time>2017-08-19T10:08:58Z</time>
      </trkpt>
      <trkpt lat="43.32349" lon="6.48298">
        <ele>354.44873</ele>
        <time>2017-08-19T10:09:06Z</time>
      </trkpt>
      <trkpt lat="43.32338" lon="6.48354">
        <ele>354.503448</ele>
        <time>2017-08-19T10:09:16Z</time>
      </trkpt>
      <trkpt lat="43.32339" lon="6.48409">
        <ele>353.916718</ele>
        <time>2017-08-19T10:09:25Z</time>
      </trkpt>
      <trkpt lat="43.32352" lon="6.48468">
        <ele>355.726379</ele>
        <time>2017-08-19T10:09:33Z</time>
      </trkpt>
      <trkpt lat="43.32366" lon="6.48525">
        <ele>356.768707</ele>
        <time>2017-08-19T10:09:41Z</time>
      </trkpt>
      <trkpt lat="43.32386" lon="6.48572">
        <ele>359.201202</ele>
        <time>2017-08-19T10:09:50Z</time>
      </trkpt>
      <trkpt lat="43.32398" lon="6.48625">
        <ele>359.260437</ele>
        <time>2017-08-19T10:09:59Z</time>
      </trkpt>
      <trkpt lat="43.32405" lon="6.48678">
        <ele>354.296753</ele>
        <time>2017-08-19T10:10:08Z</time>
      </trkpt>
      <trkpt lat="43.32432" lon="6.4872">
        <ele>358.232941</ele>
        <time>2017-08-19T10:10:17Z</time>
      </trkpt>
      <trkpt lat="43.32456" lon="6.48764">
        <ele>359.05661</ele>
        <time>2017-08-19T10:10:27Z</time>
      </trkpt>
      <trkpt lat="43.32425" lon="6.48799">
        <ele>355.896912</ele>
        <time>2017-08-19T10:10:35Z</time>
      </trkpt>
      <trkpt lat="43.3239" lon="6.48837">
        <ele>354.042786</ele>
        <time>2017-08-19T10:10:44Z</time>
      </trkpt>
      <trkpt lat="43.32365" lon="6.48884">
        <ele>355.006287</ele>
        <time>2017-08-19T10:10:53Z</time>
      </trkpt>
      <trkpt lat="43.32341" lon="6.4893">
        <ele>354.725891</ele>
        <time>2017-08-19T10:11:00Z</time>
      </trkpt>
      <trkpt lat="43.32321" lon="6.48978">
        <ele>355.309387</ele>
        <time>2017-08-19T10:11:12Z</time>
      </trkpt>
      <trkpt lat="43.32329" lon="6.49033">
        <ele>351.751251</ele>
        <time>2017-08-19T10:11:22Z</time>
      </trkpt>
      <trkpt lat="43.32371" lon="6.49046">
        <ele>354.574371</ele>
        <time>2017-08-19T10:11:32Z</time>
      </trkpt>
      <trkpt lat="43.32413" lon="6.49043">
        <ele>358.161865</ele>
        <time>2017-08-19T10:11:42Z</time>
      </trkpt>
      <trkpt lat="43.32412" lon="6.49096">
        <ele>358.888611</ele>
        <time>2017-08-19T10:11:52Z</time>
      </trkpt>
      <trkpt lat="43.32378" lon="6.49133">
        <ele>355.252472</ele>
        <time>2017-08-19T10:12:00Z</time>
      </trkpt>
      <trkpt lat="43.32346" lon="6.49177">
        <ele>354.380035</ele>
        <time>2017-08-19T10:12:08Z</time>
      </trkpt>
      <trkpt lat="43.32337" lon="6.49233">
        <ele>354.162964</ele>
        <time>2017-08-19T10:12:16Z</time>
      </trkpt>
      <trkpt lat="43.32357" lon="6.49278">
        <ele>352.964996</ele>
        <time>2017-08-19T10:12:22Z</time>
      </trkpt>
      <trkpt lat="43.32394" lon="6.49305">
        <ele>353.343628</ele>
        <time>2017-08-19T10:12:28Z</time>
      </trkpt>
      <trkpt lat="43.32435" lon="6.49323">
        <ele>352.036591</ele>
        <time>2017-08-19T10:12:35Z</time>
      </trkpt>
      <trkpt lat="43.32475" lon="6.49319">
        <ele>351.984741</ele>
        <time>2017-08-19T10:12:43Z</time>
      </trkpt>
      <trkpt lat="43.32513" lon="6.49285">
        <ele>354.019348</ele>
        <time>2017-08-19T10:12:51Z</time>
      </trkpt>
      <trkpt lat="43.32547" lon="6.49249">
        <ele>356.253754</ele>
        <time>2017-08-19T10:13:00Z</time>
      </trkpt>
      <trkpt lat="43.3259" lon="6.49238">
        <ele>355.202057</ele>
        <time>2017-08-19T10:13:09Z</time>
      </trkpt>
      <trkpt lat="43.32632" lon="6.49235">
        <ele>357.103363</ele>
        <time>2017-08-19T10:13:18Z</time>
      </trkpt>
      <trkpt lat="43.32669" lon="6.49267">
        <ele>353.546234</ele>
        <time>2017-08-19T10:13:27Z</time>
      </trkpt>
      <trkpt lat="43.32672" lon="6.4932">
        <ele>349.388458</ele>
        <time>2017-08-19T10:13:37Z</time>
      </trkpt>
      <trkpt lat="43.3266" lon="6.49369">
        <ele>349.293335</ele>
        <time>2017-08-19T10:13:48Z</time>
      </trkpt>
      <trkpt lat="43.32657" lon="6.49424">
        <ele>349.460144</ele>
        <time>2017-08-19T10:13:57Z</time>
      </trkpt>
      <trkpt lat="43.32669" lon="6.49478">
        <ele>349.942383</ele>
        <time>2017-08-19T10:14:06Z</time>
      </trkpt>
      <trkpt lat="43.32686" lon="6.49535">
        <ele>351.784027</ele>
        <time>2017-08-19T10:14:15Z</time>
      </trkpt>
      <trkpt lat="43.32703" lon="6.49583">
        <ele>355.316406</ele>
        <time>2017-08-19T10:14:22Z</time>
      </trkpt>
      <trkpt lat="43.3268" lon="6.49625">
        <ele>355.507019</ele>
        <time>2017-08-19T10:14:33Z</time>
      </trkpt>
      <trkpt lat="43.32681" lon="6.49679">
        <ele>359.661774</ele>
        <time>2017-08-19T10:14:54Z</time>
      </trkpt>
      <trkpt lat="43.32686" lon="6.49737">
        <ele>366.995544</ele>
        <time>2017-08-19T10:15:18Z</time>
      </trkpt>
      <trkpt lat="43.32661" lon="6.49779">
        <ele>366.600281</ele>
        <time>2017-08-19T10:15:36Z</time>
      </trkpt>
      <trkpt lat="43.32621" lon="6.498">
        <ele>365.826233</ele>
        <time>2017-08-19T10:15:54Z</time>
      </trkpt>
      <trkpt lat="43.32583" lon="6.49844">
        <ele>371.092255</ele>
        <time>2017-08-19T10:16:15Z</time>
      </trkpt>
      <trkpt lat="43.32548" lon="6.49876">
        <ele>373.150665</ele>
        <time>2017-08-19T10:16:29Z</time>
      </trkpt>
      <trkpt lat="43.32512" lon="6.499">
        <ele>370.955658</ele>
        <time>2017-08-19T10:16:40Z</time>
      </trkpt>
      <trkpt lat="43.32486" lon="6.49946">
        <ele>373.441071</ele>
        <time>2017-08-19T10:16:57Z</time>
      </trkpt>
      <trkpt lat="43.32467" lon="6.49998">
        <ele>373.557648</ele>
        <time>2017-08-19T10:17:16Z</time>
      </trkpt>
      <trkpt lat="43.32494" lon="6.50034">
        <ele>372.668121</ele>
        <time>2017-08-19T10:17:34Z</time>
      </trkpt>
      <trkpt lat="43.32537" lon="6.50056">
        <ele>377.163483</ele>
        <time>2017-08-19T10:17:50Z</time>
      </trkpt>
      <trkpt lat="43.32573" lon="6.501">
        <ele>379.292511</ele>
        <time>2017-08-19T10:18:04Z</time>
      </trkpt>
      <trkpt lat="43.32593" lon="6.50154">
        <ele>381.068054</ele>
        <time>2017-08-19T10:18:14Z</time>
      </trkpt>
      <trkpt lat="43.32564" lon="6.50188">
        <ele>378.238434</ele>
        <time>2017-08-19T10:18:25Z</time>
      </trkpt>
      <trkpt lat="43.32519" lon="6.50183">
        <ele>373.595917</ele>
        <time>2017-08-19T10:18:35Z</time>
      </trkpt>
      <trkpt lat="43.32475" lon="6.50187">
        <ele>371.047943</ele>
        <time>2017-08-19T10:18:41Z</time>
      </trkpt>
      <trkpt lat="43.32434" lon="6.50183">
        <ele>367.547333</ele>
        <time>2017-08-19T10:18:46Z</time>
      </trkpt>
      <trkpt lat="43.32395" lon="6.50186">
        <ele>367.212189</ele>
        <time>2017-08-19T10:18:51Z</time>
      </trkpt>
      <trkpt lat="43.32355" lon="6.50186">
        <ele>366.442505</ele>
        <time>2017-08-19T10:18:56Z</time>
      </trkpt>
      <trkpt lat="43.32312" lon="6.50173">
        <ele>362.75</ele>
        <time>2017-08-19T10:19:01Z</time>
      </trkpt>
      <trkpt lat="43.32264" lon="6.50168">
        <ele>360.949493</ele>
        <time>2017-08-19T10:19:06Z</time>
      </trkpt>
      <trkpt lat="43.32216" lon="6.5016">
        <ele>356.911865</ele>
        <time>2017-08-19T10:19:11Z</time>
      </trkpt>
      <trkpt lat="43.32175" lon="6.50159">
        <ele>353.886993</ele>
        <time>2017-08-19T10:19:16Z</time>
      </trkpt>
      <trkpt lat="43.32131" lon="6.50182">
        <ele>353.356812</ele>
        <time>2017-08-19T10:19:21Z</time>
      </trkpt>
      <trkpt lat="43.32087" lon="6.50212">
        <ele>351.015106</ele>
        <time>2017-08-19T10:19:26Z</time>
      </trkpt>
      <trkpt lat="43.32045" lon="6.50247">
        <ele>349.547516</ele>
        <time>2017-08-19T10:19:31Z</time>
      </trkpt>
      <trkpt lat="43.3201" lon="6.50274">
        <ele>345.732635</ele>
        <time>2017-08-19T10:19:35Z</time>
      </trkpt>
      <trkpt lat="43.31964" lon="6.50287">
        <ele>338.79306</ele>
        <time>2017-08-19T10:19:40Z</time>
      </trkpt>
      <trkpt lat="43.31921" lon="6.50294">
        <ele>333.512726</ele>
        <time>2017-08-19T10:19:44Z</time>
      </trkpt>
      <trkpt lat="43.31879" lon="6.50299">
        <ele>328.220917</ele>
        <time>2017-08-19T10:19:48Z</time>
      </trkpt>
      <trkpt lat="43.31841" lon="6.50278">
        <ele>325.793671</ele>
        <time>2017-08-19T10:19:53Z</time>
      </trkpt>
      <trkpt lat="43.31804" lon="6.50278">
        <ele>323.098297</ele>
        <time>2017-08-19T10:20:01Z</time>
      </trkpt>
      <trkpt lat="43.31778" lon="6.50276">
        <ele>320.747498</ele>
        <time>2017-08-19T10:20:11Z</time>
      </trkpt>
      <trkpt lat="43.31819" lon="6.50254">
        <ele>324.13382</ele>
        <time>2017-08-19T10:20:21Z</time>
      </trkpt>
      <trkpt lat="43.31822" lon="6.50225">
        <ele>317.579987</ele>
        <time>2017-08-19T10:20:30Z</time>
      </trkpt>
      <trkpt lat="43.31781" lon="6.50232">
        <ele>316.184509</ele>
        <time>2017-08-19T10:20:35Z</time>
      </trkpt>
      <trkpt lat="43.3174" lon="6.50244">
        <ele>314.410645</ele>
        <time>2017-08-19T10:20:40Z</time>
      </trkpt>
      <trkpt lat="43.31696" lon="6.50258">
        <ele>306.978943</ele>
        <time>2017-08-19T10:20:45Z</time>
      </trkpt>
      <trkpt lat="43.31644" lon="6.50263">
        <ele>301.345947</ele>
        <time>2017-08-19T10:20:50Z</time>
      </trkpt>
      <trkpt lat="43.31598" lon="6.50264">
        <ele>297.093201</ele>
        <time>2017-08-19T10:20:54Z</time>
      </trkpt>
      <trkpt lat="43.31553" lon="6.50264">
        <ele>291.217224</ele>
        <time>2017-08-19T10:20:58Z</time>
      </trkpt>
      <trkpt lat="43.31512" lon="6.50261">
        <ele>285.36908</ele>
        <time>2017-08-19T10:21:02Z</time>
      </trkpt>
      <trkpt lat="43.3147" lon="6.50248">
        <ele>282.351532</ele>
        <time>2017-08-19T10:21:08Z</time>
      </trkpt>
      <trkpt lat="43.31427" lon="6.5023">
        <ele>282.144836</ele>
        <time>2017-08-19T10:21:14Z</time>
      </trkpt>
      <trkpt lat="43.31386" lon="6.50214">
        <ele>280.201263</ele>
        <time>2017-08-19T10:21:19Z</time>
      </trkpt>
      <trkpt lat="43.31344" lon="6.5019">
        <ele>277.437195</ele>
        <time>2017-08-19T10:21:24Z</time>
      </trkpt>
      <trkpt lat="43.31301" lon="6.50157">
        <ele>274.947479</ele>
        <time>2017-08-19T10:21:29Z</time>
      </trkpt>
      <trkpt lat="43.31261" lon="6.50149">
        <ele>270.482422</ele>
        <time>2017-08-19T10:21:35Z</time>
      </trkpt>
      <trkpt lat="43.31239" lon="6.50205">
        <ele>270.20343</ele>
        <time>2017-08-19T10:21:41Z</time>
      </trkpt>
      <trkpt lat="43.31216" lon="6.50257">
        <ele>265.160522</ele>
        <time>2017-08-19T10:21:46Z</time>
      </trkpt>
      <trkpt lat="43.31214" lon="6.50305">
        <ele>259.151367</ele>
        <time>2017-08-19T10:21:53Z</time>
      </trkpt>
      <trkpt lat="43.31257" lon="6.50308">
        <ele>260.334503</ele>
        <time>2017-08-19T10:21:59Z</time>
      </trkpt>
      <trkpt lat="43.31301" lon="6.50315">
        <ele>262.712677</ele>
        <time>2017-08-19T10:22:05Z</time>
      </trkpt>
      <trkpt lat="43.31327" lon="6.50363">
        <ele>254.280441</ele>
        <time>2017-08-19T10:22:11Z</time>
      </trkpt>
      <trkpt lat="43.31361" lon="6.50395">
        <ele>251.022293</ele>
        <time>2017-08-19T10:22:16Z</time>
      </trkpt>
      <trkpt lat="43.31405" lon="6.50406">
        <ele>250.351883</ele>
        <time>2017-08-19T10:22:21Z</time>
      </trkpt>
      <trkpt lat="43.31449" lon="6.50413">
        <ele>249.267899</ele>
        <time>2017-08-19T10:22:27Z</time>
      </trkpt>
      <trkpt lat="43.31484" lon="6.50441">
        <ele>243.212494</ele>
        <time>2017-08-19T10:22:32Z</time>
      </trkpt>
      <trkpt lat="43.31526" lon="6.5046">
        <ele>239.845001</ele>
        <time>2017-08-19T10:22:38Z</time>
      </trkpt>
      <trkpt lat="43.31574" lon="6.50453">
        <ele>243.251007</ele>
        <time>2017-08-19T10:22:44Z</time>
      </trkpt>
      <trkpt lat="43.31611" lon="6.5048">
        <ele>237.758331</ele>
        <time>2017-08-19T10:22:51Z</time>
      </trkpt>
      <trkpt lat="43.31643" lon="6.50511">
        <ele>232.152496</ele>
        <time>2017-08-19T10:22:56Z</time>
      </trkpt>
      <trkpt lat="43.31687" lon="6.50525">
        <ele>231.087402</ele>
        <time>2017-08-19T10:23:01Z</time>
      </trkpt>
      <trkpt lat="43.31726" lon="6.50553">
        <ele>226.222015</ele>
        <time>2017-08-19T10:23:06Z</time>
      </trkpt>
      <trkpt lat="43.31769" lon="6.50581">
        <ele>221.90213</ele>
        <time>2017-08-19T10:23:11Z</time>
      </trkpt>
      <trkpt lat="43.31811" lon="6.50605">
        <ele>219.999069</ele>
        <time>2017-08-19T10:23:16Z</time>
      </trkpt>
      <trkpt lat="43.31847" lon="6.50631">
        <ele>219.728287</ele>
        <time>2017-08-19T10:23:22Z</time>
      </trkpt>
      <trkpt lat="43.31879" lon="6.50667">
        <ele>216.928543</ele>
        <time>2017-08-19T10:23:29Z</time>
      </trkpt>
      <trkpt lat="43.3191" lon="6.50708">
        <ele>217.280807</ele>
        <time>2017-08-19T10:23:36Z</time>
      </trkpt>
      <trkpt lat="43.31884" lon="6.50722">
        <ele>218.560349</ele>
        <time>2017-08-19T10:23:46Z</time>
      </trkpt>
      <trkpt lat="43.31842" lon="6.50695">
        <ele>212.891281</ele>
        <time>2017-08-19T10:23:53Z</time>
      </trkpt>
      <trkpt lat="43.31803" lon="6.50677">
        <ele>212.367996</ele>
        <time>2017-08-19T10:23:58Z</time>
      </trkpt>
      <trkpt lat="43.31763" lon="6.50662">
        <ele>211.710297</ele>
        <time>2017-08-19T10:24:03Z</time>
      </trkpt>
      <trkpt lat="43.31721" lon="6.50652">
        <ele>209.795975</ele>
        <time>2017-08-19T10:24:08Z</time>
      </trkpt>
      <trkpt lat="43.31681" lon="6.50657">
        <ele>205.970154</ele>
        <time>2017-08-19T10:24:13Z</time>
      </trkpt>
      <trkpt lat="43.31638" lon="6.5067">
        <ele>200.758759</ele>
        <time>2017-08-19T10:24:19Z</time>
      </trkpt>
      <trkpt lat="43.31596" lon="6.50675">
        <ele>199.447479</ele>
        <time>2017-08-19T10:24:25Z</time>
      </trkpt>
      <trkpt lat="43.31557" lon="6.50672">
        <ele>196.947449</ele>
        <time>2017-08-19T10:24:30Z</time>
      </trkpt>
      <trkpt lat="43.31514" lon="6.50659">
        <ele>194.696609</ele>
        <time>2017-08-19T10:24:35Z</time>
      </trkpt>
      <trkpt lat="43.31469" lon="6.50641">
        <ele>194.221924</ele>
        <time>2017-08-19T10:24:40Z</time>
      </trkpt>
      <trkpt lat="43.31426" lon="6.50622">
        <ele>193.400742</ele>
        <time>2017-08-19T10:24:45Z</time>
      </trkpt>
      <trkpt lat="43.31381" lon="6.50615">
        <ele>192.28656</ele>
        <time>2017-08-19T10:24:50Z</time>
      </trkpt>
      <trkpt lat="43.31337" lon="6.50622">
        <ele>191.114655</ele>
        <time>2017-08-19T10:24:55Z</time>
      </trkpt>
      <trkpt lat="43.31294" lon="6.50635">
        <ele>189.816132</ele>
        <time>2017-08-19T10:25:01Z</time>
      </trkpt>
      <trkpt lat="43.31254" lon="6.50652">
        <ele>190.824997</ele>
        <time>2017-08-19T10:25:10Z</time>
      </trkpt>
      <trkpt lat="43.31214" lon="6.50667">
        <ele>194.104813</ele>
        <time>2017-08-19T10:25:20Z</time>
      </trkpt>
      <trkpt lat="43.3117" lon="6.50668">
        <ele>193.371643</ele>
        <time>2017-08-19T10:25:33Z</time>
      </trkpt>
      <trkpt lat="43.3113" lon="6.50679">
        <ele>195.588943</ele>
        <time>2017-08-19T10:25:49Z</time>
      </trkpt>
      <trkpt lat="43.31089" lon="6.50688">
        <ele>196.033752</ele>
        <time>2017-08-19T10:26:05Z</time>
      </trkpt>
      <trkpt lat="43.31053" lon="6.5072">
        <ele>198.188248</ele>
        <time>2017-08-19T10:26:18Z</time>
      </trkpt>
      <trkpt lat="43.31029" lon="6.50759">
        <ele>198.433807</ele>
        <time>2017-08-19T10:26:31Z</time>
      </trkpt>
      <trkpt lat="43.31044" lon="6.50809">
        <ele>199.385773</ele>
        <time>2017-08-19T10:26:43Z</time>
      </trkpt>
      <trkpt lat="43.31078" lon="6.50835">
        <ele>203.561249</ele>
        <time>2017-08-19T10:27:04Z</time>
      </trkpt>
      <trkpt lat="43.31108" lon="6.50872">
        <ele>206.590805</ele>
        <time>2017-08-19T10:27:24Z</time>
      </trkpt>
      <trkpt lat="43.31129" lon="6.50921">
        <ele>206.184952</ele>
        <time>2017-08-19T10:27:42Z</time>
      </trkpt>
      <trkpt lat="43.31158" lon="6.50962">
        <ele>211.171402</ele>
        <time>2017-08-19T10:28:02Z</time>
      </trkpt>
      <trkpt lat="43.31188" lon="6.51">
        <ele>218.84227</ele>
        <time>2017-08-19T10:28:23Z</time>
      </trkpt>
      <trkpt lat="43.3119" lon="6.51054">
        <ele>218.009995</ele>
        <time>2017-08-19T10:28:42Z</time>
      </trkpt>
      <trkpt lat="43.31195" lon="6.51108">
        <ele>218.666473</ele>
        <time>2017-08-19T10:29:01Z</time>
      </trkpt>
      <trkpt lat="43.31215" lon="6.51154">
        <ele>222.251251</ele>
        <time>2017-08-19T10:29:24Z</time>
      </trkpt>
      <trkpt lat="43.3124" lon="6.51197">
        <ele>223.646515</ele>
        <time>2017-08-19T10:29:44Z</time>
      </trkpt>
      <trkpt lat="43.31271" lon="6.5123">
        <ele>227.044189</ele>
        <time>2017-08-19T10:30:00Z</time>
      </trkpt>
      <trkpt lat="43.31299" lon="6.51276">
        <ele>228.518997</ele>
        <time>2017-08-19T10:32:29Z</time>
      </trkpt>
      <trkpt lat="43.31324" lon="6.51321">
        <ele>231.945755</ele>
        <time>2017-08-19T10:32:46Z</time>
      </trkpt>
      <trkpt lat="43.31331" lon="6.51376">
        <ele>234.719498</ele>
        <time>2017-08-19T10:33:01Z</time>
      </trkpt>
      <trkpt lat="43.31292" lon="6.51415">
        <ele>228.649994</ele>
        <time>2017-08-19T10:33:10Z</time>
      </trkpt>
      <trkpt lat="43.31266" lon="6.51457">
        <ele>222.748352</ele>
        <time>2017-08-19T10:33:16Z</time>
      </trkpt>
      <trkpt lat="43.31274" lon="6.51512">
        <ele>221.332138</ele>
        <time>2017-08-19T10:33:21Z</time>
      </trkpt>
      <trkpt lat="43.31299" lon="6.51559">
        <ele>228.938751</ele>
        <time>2017-08-19T10:33:27Z</time>
      </trkpt>
      <trkpt lat="43.31282" lon="6.51608">
        <ele>227.135498</ele>
        <time>2017-08-19T10:33:36Z</time>
      </trkpt>
      <trkpt lat="43.31263" lon="6.51659">
        <ele>222.990555</ele>
        <time>2017-08-19T10:33:44Z</time>
      </trkpt>
      <trkpt lat="43.31264" lon="6.51718">
        <ele>222.979996</ele>
        <time>2017-08-19T10:33:51Z</time>
      </trkpt>
      <trkpt lat="43.3126" lon="6.51772">
        <ele>214.531357</ele>
        <time>2017-08-19T10:33:56Z</time>
      </trkpt>
      <trkpt lat="43.31281" lon="6.51825">
        <ele>210.92926</ele>
        <time>2017-08-19T10:34:01Z</time>
      </trkpt>
      <trkpt lat="43.31326" lon="6.51838">
        <ele>210.506775</ele>
        <time>2017-08-19T10:34:07Z</time>
      </trkpt>
      <trkpt lat="43.31367" lon="6.51832">
        <ele>211.972504</ele>
        <time>2017-08-19T10:34:12Z</time>
      </trkpt>
      <trkpt lat="43.31403" lon="6.51856">
        <ele>208.997498</ele>
        <time>2017-08-19T10:34:18Z</time>
      </trkpt>
      <trkpt lat="43.31439" lon="6.51895">
        <ele>201.869247</ele>
        <time>2017-08-19T10:34:24Z</time>
      </trkpt>
      <trkpt lat="43.31484" lon="6.51898">
        <ele>200.510239</ele>
        <time>2017-08-19T10:34:31Z</time>
      </trkpt>
      <trkpt lat="43.31525" lon="6.51901">
        <ele>199.300446</ele>
        <time>2017-08-19T10:34:37Z</time>
      </trkpt>
      <trkpt lat="43.31569" lon="6.51909">
        <ele>198.838501</ele>
        <time>2017-08-19T10:34:43Z</time>
      </trkpt>
      <trkpt lat="43.31561" lon="6.51945">
        <ele>202.242447</ele>
        <time>2017-08-19T10:34:51Z</time>
      </trkpt>
      <trkpt lat="43.3152" lon="6.51966">
        <ele>201.63588</ele>
        <time>2017-08-19T10:35:04Z</time>
      </trkpt>
      <trkpt lat="43.31484" lon="6.51993">
        <ele>203.899796</ele>
        <time>2017-08-19T10:35:21Z</time>
      </trkpt>
      <trkpt lat="43.31464" lon="6.52034">
        <ele>204.538406</ele>
        <time>2017-08-19T10:35:43Z</time>
      </trkpt>
      <trkpt lat="43.31471" lon="6.52085">
        <ele>210.678558</ele>
        <time>2017-08-19T10:36:05Z</time>
      </trkpt>
      <trkpt lat="43.31495" lon="6.52128">
        <ele>216.754913</ele>
        <time>2017-08-19T10:36:30Z</time>
      </trkpt>
      <trkpt lat="43.31487" lon="6.52174">
        <ele>218.676559</ele>
        <time>2017-08-19T10:36:57Z</time>
      </trkpt>
      <trkpt lat="43.3147" lon="6.52223">
        <ele>220.791046</ele>
        <time>2017-08-19T10:37:22Z</time>
      </trkpt>
      <trkpt lat="43.31457" lon="6.52261">
        <ele>224.143997</ele>
        <time>2017-08-19T10:37:46Z</time>
      </trkpt>
      <trkpt lat="43.31423" lon="6.5229">
        <ele>227.005005</ele>
        <time>2017-08-19T10:38:09Z</time>
      </trkpt>
      <trkpt lat="43.31386" lon="6.52293">
        <ele>227.291687</ele>
        <time>2017-08-19T10:38:33Z</time>
      </trkpt>
      <trkpt lat="43.31352" lon="6.52325">
        <ele>232.500168</ele>
        <time>2017-08-19T10:38:57Z</time>
      </trkpt>
      <trkpt lat="43.31314" lon="6.52348">
        <ele>232.83815</ele>
        <time>2017-08-19T10:39:14Z</time>
      </trkpt>
      <trkpt lat="43.31288" lon="6.52388">
        <ele>234.834366</ele>
        <time>2017-08-19T10:39:28Z</time>
      </trkpt>
      <trkpt lat="43.31259" lon="6.5243">
        <ele>234.629456</ele>
        <time>2017-08-19T10:39:42Z</time>
      </trkpt>
      <trkpt lat="43.31265" lon="6.52479">
        <ele>237.745789</ele>
        <time>2017-08-19T10:39:58Z</time>
      </trkpt>
      <trkpt lat="43.31293" lon="6.52519">
        <ele>241.781448</ele>
        <time>2017-08-19T10:40:17Z</time>
      </trkpt>
      <trkpt lat="43.31322" lon="6.52556">
        <ele>242.342804</ele>
        <time>2017-08-19T10:40:38Z</time>
      </trkpt>
      <trkpt lat="43.31357" lon="6.52582">
        <ele>247.575577</ele>
        <time>2017-08-19T10:40:59Z</time>
      </trkpt>
      <trkpt lat="43.31385" lon="6.52616">
        <ele>247.537155</ele>
        <time>2017-08-19T10:41:22Z</time>
      </trkpt>
      <trkpt lat="43.31378" lon="6.52659">
        <ele>248.680939</ele>
        <time>2017-08-19T10:41:43Z</time>
      </trkpt>
      <trkpt lat="43.31335" lon="6.52655">
        <ele>253.657394</ele>
        <time>2017-08-19T10:42:00Z</time>
      </trkpt>
      <trkpt lat="43.31298" lon="6.52623">
        <ele>252.822113</ele>
        <time>2017-08-19T10:42:16Z</time>
      </trkpt>
      <trkpt lat="43.3126" lon="6.52591">
        <ele>250.324509</ele>
        <time>2017-08-19T10:42:26Z</time>
      </trkpt>
      <trkpt lat="43.31222" lon="6.5258">
        <ele>248.700775</ele>
        <time>2017-08-19T10:42:36Z</time>
      </trkpt>
      <trkpt lat="43.31181" lon="6.52584">
        <ele>247.407242</ele>
        <time>2017-08-19T10:42:43Z</time>
      </trkpt>
      <trkpt lat="43.31144" lon="6.52587">
        <ele>242.695496</ele>
        <time>2017-08-19T10:42:48Z</time>
      </trkpt>
      <trkpt lat="43.311" lon="6.5259">
        <ele>237.825943</ele>
        <time>2017-08-19T10:42:54Z</time>
      </trkpt>
      <trkpt lat="43.31062" lon="6.52583">
        <ele>236.649124</ele>
        <time>2017-08-19T10:43:01Z</time>
      </trkpt>
      <trkpt lat="43.31072" lon="6.52532">
        <ele>234.149811</ele>
        <time>2017-08-19T10:43:17Z</time>
      </trkpt>
      <trkpt lat="43.31095" lon="6.52485">
        <ele>239.452805</ele>
        <time>2017-08-19T10:43:39Z</time>
      </trkpt>
      <trkpt lat="43.31101" lon="6.52434">
        <ele>243.004227</ele>
        <time>2017-08-19T10:44:08Z</time>
      </trkpt>
      <trkpt lat="43.31089" lon="6.52377">
        <ele>249.429337</ele>
        <time>2017-08-19T10:44:45Z</time>
      </trkpt>
      <trkpt lat="43.31095" lon="6.52318">
        <ele>251.087708</ele>
        <time>2017-08-19T10:45:18Z</time>
      </trkpt>
      <trkpt lat="43.31071" lon="6.52272">
        <ele>253.949982</ele>
        <time>2017-08-19T10:45:46Z</time>
      </trkpt>
      <trkpt lat="43.31036" lon="6.52243">
        <ele>257.045654</ele>
        <time>2017-08-19T10:46:09Z</time>
      </trkpt>
      <trkpt lat="43.30999" lon="6.52229">
        <ele>259.910034</ele>
        <time>2017-08-19T10:46:32Z</time>
      </trkpt>
      <trkpt lat="43.30963" lon="6.52258">
        <ele>261.897034</ele>
        <time>2017-08-19T10:46:51Z</time>
      </trkpt>
      <trkpt lat="43.30924" lon="6.5227">
        <ele>262.357513</ele>
        <time>2017-08-19T10:47:07Z</time>
      </trkpt>
      <trkpt lat="43.30884" lon="6.52272">
        <ele>263.514587</ele>
        <time>2017-08-19T10:47:21Z</time>
      </trkpt>
      <trkpt lat="43.30844" lon="6.5226">
        <ele>264.77002</ele>
        <time>2017-08-19T10:47:35Z</time>
      </trkpt>
      <trkpt lat="43.3081" lon="6.52229">
        <ele>263.141693</ele>
        <time>2017-08-19T10:47:49Z</time>
      </trkpt>
      <trkpt lat="43.30767" lon="6.52228">
        <ele>264.528748</ele>
        <time>2017-08-19T10:48:02Z</time>
      </trkpt>
      <trkpt lat="43.30723" lon="6.52228">
        <ele>267.421906</ele>
        <time>2017-08-19T10:48:14Z</time>
      </trkpt>
      <trkpt lat="43.30691" lon="6.52187">
        <ele>266.902588</ele>
        <time>2017-08-19T10:48:32Z</time>
      </trkpt>
      <trkpt lat="43.30651" lon="6.52167">
        <ele>269.771515</ele>
        <time>2017-08-19T10:48:49Z</time>
      </trkpt>
      <trkpt lat="43.30616" lon="6.52141">
        <ele>270.569702</ele>
        <time>2017-08-19T10:49:02Z</time>
      </trkpt>
      <trkpt lat="43.3058" lon="6.52115">
        <ele>271.255005</ele>
        <time>2017-08-19T10:49:18Z</time>
      </trkpt>
      <trkpt lat="43.3054" lon="6.52097">
        <ele>272.290009</ele>
        <time>2017-08-19T10:49:34Z</time>
      </trkpt>
      <trkpt lat="43.30501" lon="6.5208">
        <ele>270.959991</ele>
        <time>2017-08-19T10:49:50Z</time>
      </trkpt>
      <trkpt lat="43.30461" lon="6.52091">
        <ele>274.714203</ele>
        <time>2017-08-19T10:50:07Z</time>
      </trkpt>
      <trkpt lat="43.30421" lon="6.52085">
        <ele>274.572937</ele>
        <time>2017-08-19T10:50:25Z</time>
      </trkpt>
      <trkpt lat="43.30384" lon="6.5206">
        <ele>272.061249</ele>
        <time>2017-08-19T10:50:41Z</time>
      </trkpt>
      <trkpt lat="43.30342" lon="6.52054">
        <ele>270.568634</ele>
        <time>2017-08-19T10:50:55Z</time>
      </trkpt>
      <trkpt lat="43.30314" lon="6.52015">
        <ele>272.246399</ele>
        <time>2017-08-19T10:51:14Z</time>
      </trkpt>
      <trkpt lat="43.30292" lon="6.51966">
        <ele>278.723419</ele>
        <time>2017-08-19T10:51:57Z</time>
      </trkpt>
      <trkpt lat="43.30291" lon="6.51913">
        <ele>283.197815</ele>
        <time>2017-08-19T10:52:40Z</time>
      </trkpt>
      <trkpt lat="43.30275" lon="6.51867">
        <ele>288.994019</ele>
        <time>2017-08-19T10:53:45Z</time>
      </trkpt>
      <trkpt lat="43.30237" lon="6.51857">
        <ele>295.285889</ele>
        <time>2017-08-19T10:55:44Z</time>
      </trkpt>
      <trkpt lat="43.30204" lon="6.51826">
        <ele>300.357391</ele>
        <time>2017-08-19T10:56:14Z</time>
      </trkpt>
      <trkpt lat="43.30189" lon="6.51766">
        <ele>306.830414</ele>
        <time>2017-08-19T10:57:04Z</time>
      </trkpt>
      <trkpt lat="43.30151" lon="6.51746">
        <ele>308.743713</ele>
        <time>2017-08-19T10:58:10Z</time>
      </trkpt>
      <trkpt lat="43.30115" lon="6.51721">
        <ele>311.655945</ele>
        <time>2017-08-19T10:58:34Z</time>
      </trkpt>
      <trkpt lat="43.3009" lon="6.51675">
        <ele>313.862396</ele>
        <time>2017-08-19T10:58:52Z</time>
      </trkpt>
      <trkpt lat="43.30077" lon="6.51623">
        <ele>315.126953</ele>
        <time>2017-08-19T10:59:00Z</time>
      </trkpt>
      <trkpt lat="43.30061" lon="6.51571">
        <ele>314.532867</ele>
        <time>2017-08-19T10:59:11Z</time>
      </trkpt>
      <trkpt lat="43.3008" lon="6.51523">
        <ele>319.739929</ele>
        <time>2017-08-19T10:59:23Z</time>
      </trkpt>
      <trkpt lat="43.30099" lon="6.51473">
        <ele>321.701752</ele>
        <time>2017-08-19T10:59:41Z</time>
      </trkpt>
      <trkpt lat="43.30121" lon="6.51421">
        <ele>321.278412</ele>
        <time>2017-08-19T10:59:54Z</time>
      </trkpt>
      <trkpt lat="43.30105" lon="6.51376">
        <ele>313.840759</ele>
        <time>2017-08-19T11:00:04Z</time>
      </trkpt>
      <trkpt lat="43.3008" lon="6.51334">
        <ele>306.04184</ele>
        <time>2017-08-19T11:00:09Z</time>
      </trkpt>
      <trkpt lat="43.30047" lon="6.51282">
        <ele>299.901794</ele>
        <time>2017-08-19T11:00:14Z</time>
      </trkpt>
      <trkpt lat="43.30012" lon="6.51262">
        <ele>297.129639</ele>
        <time>2017-08-19T11:00:20Z</time>
      </trkpt>
      <trkpt lat="43.29975" lon="6.51239">
        <ele>293.145142</ele>
        <time>2017-08-19T11:00:27Z</time>
      </trkpt>
      <trkpt lat="43.29936" lon="6.51209">
        <ele>288.912201</ele>
        <time>2017-08-19T11:00:34Z</time>
      </trkpt>
      <trkpt lat="43.29901" lon="6.51178">
        <ele>285.615662</ele>
        <time>2017-08-19T11:00:45Z</time>
      </trkpt>
      <trkpt lat="43.29874" lon="6.51136">
        <ele>280.479126</ele>
        <time>2017-08-19T11:00:58Z</time>
      </trkpt>
      <trkpt lat="43.29847" lon="6.51089">
        <ele>275.304382</ele>
        <time>2017-08-19T11:01:06Z</time>
      </trkpt>
      <trkpt lat="43.29809" lon="6.51069">
        <ele>270.646332</ele>
        <time>2017-08-19T11:01:17Z</time>
      </trkpt>
      <trkpt lat="43.29768" lon="6.5105">
        <ele>259.990753</ele>
        <time>2017-08-19T11:01:26Z</time>
      </trkpt>
      <trkpt lat="43.29736" lon="6.5101">
        <ele>256.5354</ele>
        <time>2017-08-19T11:01:32Z</time>
      </trkpt>
      <trkpt lat="43.29696" lon="6.50994">
        <ele>249.754089</ele>
        <time>2017-08-19T11:01:39Z</time>
      </trkpt>
      <trkpt lat="43.29657" lon="6.50986">
        <ele>243.905746</ele>
        <time>2017-08-19T11:01:45Z</time>
      </trkpt>
      <trkpt lat="43.29617" lon="6.50971">
        <ele>239.685623</ele>
        <time>2017-08-19T11:01:54Z</time>
      </trkpt>
      <trkpt lat="43.29574" lon="6.50967">
        <ele>231.391113</ele>
        <time>2017-08-19T11:02:05Z</time>
      </trkpt>
      <trkpt lat="43.29537" lon="6.50988">
        <ele>220.522964</ele>
        <time>2017-08-19T11:02:14Z</time>
      </trkpt>
      <trkpt lat="43.29494" lon="6.50991">
        <ele>211.775146</ele>
        <time>2017-08-19T11:02:25Z</time>
      </trkpt>
      <trkpt lat="43.29453" lon="6.50988">
        <ele>204.868896</ele>
        <time>2017-08-19T11:02:37Z</time>
      </trkpt>
      <trkpt lat="43.29409" lon="6.50993">
        <ele>196.825806</ele>
        <time>2017-08-19T11:02:45Z</time>
      </trkpt>
      <trkpt lat="43.29378" lon="6.50968">
        <ele>192.606949</ele>
        <time>2017-08-19T11:02:56Z</time>
      </trkpt>
      <trkpt lat="43.29342" lon="6.50939">
        <ele>186.684738</ele>
        <time>2017-08-19T11:03:07Z</time>
      </trkpt>
      <trkpt lat="43.29342" lon="6.50914">
        <ele>183.757523</ele>
        <time>2017-08-19T11:03:22Z</time>
      </trkpt>
      <trkpt lat="43.29333" lon="6.50848">
        <ele>171.836197</ele>
        <time>2017-08-19T11:03:33Z</time>
      </trkpt>
      <trkpt lat="43.29344" lon="6.50795">
        <ele>168.475647</ele>
        <time>2017-08-19T11:03:39Z</time>
      </trkpt>
      <trkpt lat="43.29356" lon="6.50737">
        <ele>163.747864</ele>
        <time>2017-08-19T11:03:45Z</time>
      </trkpt>
      <trkpt lat="43.29357" lon="6.50683">
        <ele>158.111755</ele>
        <time>2017-08-19T11:03:53Z</time>
      </trkpt>
      <trkpt lat="43.29344" lon="6.50629">
        <ele>150.94899</ele>
        <time>2017-08-19T11:04:01Z</time>
      </trkpt>
      <trkpt lat="43.29324" lon="6.50576">
        <ele>145.211197</ele>
        <time>2017-08-19T11:04:08Z</time>
      </trkpt>
      <trkpt lat="43.29296" lon="6.50534">
        <ele>139.818329</ele>
        <time>2017-08-19T11:04:14Z</time>
      </trkpt>
      <trkpt lat="43.29261" lon="6.50534">
        <ele>135.467667</ele>
        <time>2017-08-19T11:04:22Z</time>
      </trkpt>
      <trkpt lat="43.2922" lon="6.50548">
        <ele>129.953186</ele>
        <time>2017-08-19T11:04:30Z</time>
      </trkpt>
      <trkpt lat="43.29177" lon="6.50563">
        <ele>122.660866</ele>
        <time>2017-08-19T11:04:38Z</time>
      </trkpt>
      <trkpt lat="43.29132" lon="6.50566">
        <ele>113.475098</ele>
        <time>2017-08-19T11:04:44Z</time>
      </trkpt>
      <trkpt lat="43.29088" lon="6.50572">
        <ele>105.899063</ele>
        <time>2017-08-19T11:04:50Z</time>
      </trkpt>
      <trkpt lat="43.29043" lon="6.50575">
        <ele>103.040909</ele>
        <time>2017-08-19T11:04:55Z</time>
      </trkpt>
      <trkpt lat="43.29" lon="6.50579">
        <ele>101.347153</ele>
        <time>2017-08-19T11:05:01Z</time>
      </trkpt>
      <trkpt lat="43.28964" lon="6.50603">
        <ele>101.374947</ele>
        <time>2017-08-19T11:05:09Z</time>
      </trkpt>
      <trkpt lat="43.28921" lon="6.5062">
        <ele>95.633797</ele>
        <time>2017-08-19T11:05:16Z</time>
      </trkpt>
      <trkpt lat="43.28877" lon="6.50627">
        <ele>87.954124</ele>
        <time>2017-08-19T11:05:22Z</time>
      </trkpt>
      <trkpt lat="43.28834" lon="6.50641">
        <ele>83.39196</ele>
        <time>2017-08-19T11:05:30Z</time>
      </trkpt>
      <trkpt lat="43.288" lon="6.50673">
        <ele>81.104797</ele>
        <time>2017-08-19T11:05:36Z</time>
      </trkpt>
      <trkpt lat="43.28785" lon="6.50728">
        <ele>81.245003</ele>
        <time>2017-08-19T11:05:43Z</time>
      </trkpt>
      <trkpt lat="43.28798" lon="6.50779">
        <ele>81.016792</ele>
        <time>2017-08-19T11:05:58Z</time>
      </trkpt>
      <trkpt lat="43.28801" lon="6.50833">
        <ele>81.567162</ele>
        <time>2017-08-19T11:06:23Z</time>
      </trkpt>
      <trkpt lat="43.28799" lon="6.50866">
        <ele>81.303978</ele>
        <time>2017-08-19T11:06:52Z</time>
      </trkpt>
      <trkpt lat="43.2878" lon="6.5082">
        <ele>81.631096</ele>
        <time>2017-08-19T11:07:11Z</time>
      </trkpt>
      <trkpt lat="43.28764" lon="6.50766">
        <ele>81.684998</ele>
        <time>2017-08-19T11:07:34Z</time>
      </trkpt>
      <trkpt lat="43.28744" lon="6.50713">
        <ele>81.965385</ele>
        <time>2017-08-19T11:07:45Z</time>
      </trkpt>
      <trkpt lat="43.28719" lon="6.50667">
        <ele>84.164803</ele>
        <time>2017-08-19T11:07:54Z</time>
      </trkpt>
      <trkpt lat="43.2868" lon="6.50645">
        <ele>84.977203</ele>
        <time>2017-08-19T11:08:02Z</time>
      </trkpt>
      <trkpt lat="43.28643" lon="6.50652">
        <ele>83.5755</ele>
        <time>2017-08-19T11:08:10Z</time>
      </trkpt>
      <trkpt lat="43.28609" lon="6.50689">
        <ele>79.446648</ele>
        <time>2017-08-19T11:08:22Z</time>
      </trkpt>
      <trkpt lat="43.28575" lon="6.50728">
        <ele>77.875801</ele>
        <time>2017-08-19T11:08:31Z</time>
      </trkpt>
      <trkpt lat="43.28539" lon="6.50756">
        <ele>76.602798</ele>
        <time>2017-08-19T11:08:37Z</time>
      </trkpt>
      <trkpt lat="43.28509" lon="6.50792">
        <ele>78.714134</ele>
        <time>2017-08-19T11:08:49Z</time>
      </trkpt>
      <trkpt lat="43.2849" lon="6.5084">
        <ele>83.586594</ele>
        <time>2017-08-19T11:09:00Z</time>
      </trkpt>
      <trkpt lat="43.28511" lon="6.50883">
        <ele>81.158737</ele>
        <time>2017-08-19T11:09:12Z</time>
      </trkpt>
      <trkpt lat="43.28528" lon="6.50928">
        <ele>81.954796</ele>
        <time>2017-08-19T11:09:25Z</time>
      </trkpt>
      <trkpt lat="43.28528" lon="6.50979">
        <ele>86.194229</ele>
        <time>2017-08-19T11:09:52Z</time>
      </trkpt>
      <trkpt lat="43.28534" lon="6.51033">
        <ele>89.882034</ele>
        <time>2017-08-19T11:10:23Z</time>
      </trkpt>
      <trkpt lat="43.28552" lon="6.51082">
        <ele>89.435501</ele>
        <time>2017-08-19T11:10:55Z</time>
      </trkpt>
      <trkpt lat="43.28575" lon="6.51128">
        <ele>89.323235</ele>
        <time>2017-08-19T11:11:25Z</time>
      </trkpt>
      <trkpt lat="43.28576" lon="6.51183">
        <ele>89.388496</ele>
        <time>2017-08-19T11:11:45Z</time>
      </trkpt>
      <trkpt lat="43.2854" lon="6.51208">
        <ele>88.12645</ele>
        <time>2017-08-19T11:11:52Z</time>
      </trkpt>
      <trkpt lat="43.28495" lon="6.51208">
        <ele>87.054863</ele>
        <time>2017-08-19T11:11:59Z</time>
      </trkpt>
      <trkpt lat="43.28459" lon="6.5121">
        <ele>88.324974</ele>
        <time>2017-08-19T11:12:05Z</time>
      </trkpt>
      <trkpt lat="43.2844" lon="6.51257">
        <ele>79.383812</ele>
        <time>2017-08-19T11:12:13Z</time>
      </trkpt>
      <trkpt lat="43.28412" lon="6.51297">
        <ele>77.528122</ele>
        <time>2017-08-19T11:12:21Z</time>
      </trkpt>
      <trkpt lat="43.28388" lon="6.51347">
        <ele>76.206245</ele>
        <time>2017-08-19T11:12:30Z</time>
      </trkpt>
      <trkpt lat="43.28368" lon="6.51398">
        <ele>74.940437</ele>
        <time>2017-08-19T11:12:37Z</time>
      </trkpt>
      <trkpt lat="43.2835" lon="6.51452">
        <ele>71.761093</ele>
        <time>2017-08-19T11:12:44Z</time>
      </trkpt>
      <trkpt lat="43.28333" lon="6.51501">
        <ele>70.651253</ele>
        <time>2017-08-19T11:12:50Z</time>
      </trkpt>
      <trkpt lat="43.28322" lon="6.51566">
        <ele>66.851006</ele>
        <time>2017-08-19T11:12:56Z</time>
      </trkpt>
      <trkpt lat="43.28288" lon="6.51604">
        <ele>64.744247</ele>
        <time>2017-08-19T11:13:02Z</time>
      </trkpt>
      <trkpt lat="43.28249" lon="6.51634">
        <ele>63.346336</ele>
        <time>2017-08-19T11:13:09Z</time>
      </trkpt>
      <trkpt lat="43.28219" lon="6.5167">
        <ele>61.205799</ele>
        <time>2017-08-19T11:13:16Z</time>
      </trkpt>
      <trkpt lat="43.28177" lon="6.51683">
        <ele>61.0798</ele>
        <time>2017-08-19T11:13:26Z</time>
      </trkpt>
      <trkpt lat="43.28134" lon="6.51671">
        <ele>61.834026</ele>
        <time>2017-08-19T11:13:31Z</time>
      </trkpt>
      <trkpt lat="43.28089" lon="6.51657">
        <ele>60.709579</ele>
        <time>2017-08-19T11:13:37Z</time>
      </trkpt>
      <trkpt lat="43.28047" lon="6.51651">
        <ele>60.35434</ele>
        <time>2017-08-19T11:13:43Z</time>
      </trkpt>
      <trkpt lat="43.28006" lon="6.51639">
        <ele>60.984127</ele>
        <time>2017-08-19T11:13:50Z</time>
      </trkpt>
      <trkpt lat="43.27962" lon="6.51637">
        <ele>60.142502</ele>
        <time>2017-08-19T11:13:57Z</time>
      </trkpt>
      <trkpt lat="43.27913" lon="6.51625">
        <ele>61.232361</ele>
        <time>2017-08-19T11:14:03Z</time>
      </trkpt>
      <trkpt lat="43.27873" lon="6.51611">
        <ele>62.065468</ele>
        <time>2017-08-19T11:14:08Z</time>
      </trkpt>
      <trkpt lat="43.27834" lon="6.516">
        <ele>61.617519</ele>
        <time>2017-08-19T11:14:14Z</time>
      </trkpt>
      <trkpt lat="43.2779" lon="6.5159">
        <ele>60.865337</ele>
        <time>2017-08-19T11:14:22Z</time>
      </trkpt>
      <trkpt lat="43.27749" lon="6.51583">
        <ele>62.128025</ele>
        <time>2017-08-19T11:14:31Z</time>
      </trkpt>
      <trkpt lat="43.27708" lon="6.51583">
        <ele>64.577866</ele>
        <time>2017-08-19T11:14:42Z</time>
      </trkpt>
      <trkpt lat="43.27665" lon="6.51578">
        <ele>68.724174</ele>
        <time>2017-08-19T11:14:54Z</time>
      </trkpt>
      <trkpt lat="43.27632" lon="6.51583">
        <ele>71.641403</ele>
        <time>2017-08-19T11:15:19Z</time>
      </trkpt>
    </trkseg>
  </trk>
</gpx>